<?xml version="1.0" encoding="UTF-8" standalone="no" ?>
<gpx xmlns="http://www.topografix.com/GPX/1/1" xmlns:xsi="http://www.w3.org/2001/XMLSchema-instance" xsi:schemaLocation="http://www.topografix.com/GPX/1/1 http://www.topografix.com/GPX/1/1/gpx.xsd" version="1.1" creator="VisuGPX - https://www.visugpx.com">
  <metadata>
    <name>R 037  Blainière</name>
  </metadata>
  <trk>
    <name><![CDATA[Vairé Marche 18 oct. 2019 à 14:44]]></name>
    <trkseg>
      <trkpt lat="46.60162" lon="-1.75795">
        <ele>56.393539126563</ele>
        <time>2019-10-18T12:44:54Z</time>
      </trkpt>
      <trkpt lat="46.60166" lon="-1.75806">
        <ele>47.393503506956</ele>
        <time>2019-10-18T12:46:31Z</time>
      </trkpt>
      <trkpt lat="46.60173" lon="-1.75812">
        <ele>47.393725271205</ele>
        <time>2019-10-18T12:46:41Z</time>
      </trkpt>
      <trkpt lat="46.60181" lon="-1.75817">
        <ele>50.393941574358</ele>
        <time>2019-10-18T12:46:52Z</time>
      </trkpt>
      <trkpt lat="46.60189" lon="-1.75823">
        <ele>50.394159982953</ele>
        <time>2019-10-18T12:46:59Z</time>
      </trkpt>
      <trkpt lat="46.60196" lon="-1.7583">
        <ele>45.39429342095</ele>
        <time>2019-10-18T12:47:07Z</time>
      </trkpt>
      <trkpt lat="46.60198" lon="-1.75842">
        <ele>44.394179295367</ele>
        <time>2019-10-18T12:47:15Z</time>
      </trkpt>
      <trkpt lat="46.602" lon="-1.75855">
        <ele>41.394066803237</ele>
        <time>2019-10-18T12:47:24Z</time>
      </trkpt>
      <trkpt lat="46.60202" lon="-1.75868">
        <ele>43.3939080531</ele>
        <time>2019-10-18T12:47:34Z</time>
      </trkpt>
      <trkpt lat="46.60207" lon="-1.75878">
        <ele>44.393929551969</ele>
        <time>2019-10-18T12:47:41Z</time>
      </trkpt>
      <trkpt lat="46.60211" lon="-1.75889">
        <ele>44.393907797892</ele>
        <time>2019-10-18T12:47:49Z</time>
      </trkpt>
      <trkpt lat="46.60214" lon="-1.75901">
        <ele>45.393838185315</ele>
        <time>2019-10-18T12:48:00Z</time>
      </trkpt>
      <trkpt lat="46.60217" lon="-1.75909">
        <ele>46.393836391266</ele>
        <time>2019-10-18T12:48:07Z</time>
      </trkpt>
      <trkpt lat="46.60224" lon="-1.75917">
        <ele>46.393961067878</ele>
        <time>2019-10-18T12:48:13Z</time>
      </trkpt>
      <trkpt lat="46.60229" lon="-1.75926">
        <ele>44.394011460936</ele>
        <time>2019-10-18T12:48:27Z</time>
      </trkpt>
      <trkpt lat="46.60234" lon="-1.75937">
        <ele>43.394017975599</ele>
        <time>2019-10-18T12:48:35Z</time>
      </trkpt>
      <trkpt lat="46.60238" lon="-1.75948">
        <ele>42.393985338</ele>
        <time>2019-10-18T12:48:42Z</time>
      </trkpt>
      <trkpt lat="46.60243" lon="-1.75957">
        <ele>41.394039040816</ele>
        <time>2019-10-18T12:48:49Z</time>
      </trkpt>
      <trkpt lat="46.60251" lon="-1.75955">
        <ele>42.394395059999</ele>
        <time>2019-10-18T12:49:05Z</time>
      </trkpt>
      <trkpt lat="46.60259" lon="-1.75949">
        <ele>42.394789741435</ele>
        <time>2019-10-18T12:49:13Z</time>
      </trkpt>
      <trkpt lat="46.60267" lon="-1.75946">
        <ele>43.395133473557</ele>
        <time>2019-10-18T12:49:20Z</time>
      </trkpt>
      <trkpt lat="46.60272" lon="-1.75938">
        <ele>44.395475702295</ele>
        <time>2019-10-18T12:49:26Z</time>
      </trkpt>
      <trkpt lat="46.60279" lon="-1.75931">
        <ele>43.395850709673</ele>
        <time>2019-10-18T12:49:33Z</time>
      </trkpt>
      <trkpt lat="46.60287" lon="-1.75925">
        <ele>43.396246481727</ele>
        <time>2019-10-18T12:49:41Z</time>
      </trkpt>
      <trkpt lat="46.60292" lon="-1.75916">
        <ele>45.396588660131</ele>
        <time>2019-10-18T12:49:50Z</time>
      </trkpt>
      <trkpt lat="46.60297" lon="-1.75905">
        <ele>45.396965103518</ele>
        <time>2019-10-18T12:49:57Z</time>
      </trkpt>
      <trkpt lat="46.60302" lon="-1.75895">
        <ele>45.39733420152</ele>
        <time>2019-10-18T12:50:04Z</time>
      </trkpt>
      <trkpt lat="46.60309" lon="-1.75887">
        <ele>46.397739697041</ele>
        <time>2019-10-18T12:50:14Z</time>
      </trkpt>
      <trkpt lat="46.60316" lon="-1.75895">
        <ele>48.397845863214</ele>
        <time>2019-10-18T12:50:21Z</time>
      </trkpt>
      <trkpt lat="46.60322" lon="-1.75903">
        <ele>49.397962876052</ele>
        <time>2019-10-18T12:50:27Z</time>
      </trkpt>
      <trkpt lat="46.60328" lon="-1.75912">
        <ele>49.398051369506</ele>
        <time>2019-10-18T12:50:41Z</time>
      </trkpt>
      <trkpt lat="46.60326" lon="-1.75923">
        <ele>47.397794633185</ele>
        <time>2019-10-18T12:50:48Z</time>
      </trkpt>
      <trkpt lat="46.60327" lon="-1.75935">
        <ele>46.397622126807</ele>
        <time>2019-10-18T12:50:54Z</time>
      </trkpt>
      <trkpt lat="46.60328" lon="-1.75947">
        <ele>46.397490581158</ele>
        <time>2019-10-18T12:51:01Z</time>
      </trkpt>
      <trkpt lat="46.60331" lon="-1.7596">
        <ele>45.397364468487</ele>
        <time>2019-10-18T12:51:09Z</time>
      </trkpt>
      <trkpt lat="46.60333" lon="-1.75972">
        <ele>43.397262908417</ele>
        <time>2019-10-18T12:51:17Z</time>
      </trkpt>
      <trkpt lat="46.60338" lon="-1.7598">
        <ele>44.397312600771</ele>
        <time>2019-10-18T12:51:23Z</time>
      </trkpt>
      <trkpt lat="46.60345" lon="-1.75987">
        <ele>45.397468098313</ele>
        <time>2019-10-18T12:51:28Z</time>
      </trkpt>
      <trkpt lat="46.60353" lon="-1.75985">
        <ele>45.397815206992</ele>
        <time>2019-10-18T12:51:34Z</time>
      </trkpt>
      <trkpt lat="46.60362" lon="-1.75984">
        <ele>44.398158168924</ele>
        <time>2019-10-18T12:51:41Z</time>
      </trkpt>
      <trkpt lat="46.60371" lon="-1.75983">
        <ele>45.398508900934</ele>
        <time>2019-10-18T12:51:49Z</time>
      </trkpt>
      <trkpt lat="46.60379" lon="-1.75981">
        <ele>45.398872822981</ele>
        <time>2019-10-18T12:51:57Z</time>
      </trkpt>
      <trkpt lat="46.60387" lon="-1.75977">
        <ele>45.399262754374</ele>
        <time>2019-10-18T12:52:05Z</time>
      </trkpt>
      <trkpt lat="46.60395" lon="-1.75971">
        <ele>45.399637354312</ele>
        <time>2019-10-18T12:52:12Z</time>
      </trkpt>
      <trkpt lat="46.60403" lon="-1.75966">
        <ele>45.400025965174</ele>
        <time>2019-10-18T12:52:19Z</time>
      </trkpt>
      <trkpt lat="46.6041" lon="-1.75958">
        <ele>44.400424705283</ele>
        <time>2019-10-18T12:52:26Z</time>
      </trkpt>
      <trkpt lat="46.60417" lon="-1.75953">
        <ele>45.400792797236</ele>
        <time>2019-10-18T12:52:33Z</time>
      </trkpt>
      <trkpt lat="46.60424" lon="-1.75947">
        <ele>42.401148420124</ele>
        <time>2019-10-18T12:52:41Z</time>
      </trkpt>
      <trkpt lat="46.60429" lon="-1.75938">
        <ele>40.401501014464</ele>
        <time>2019-10-18T12:52:51Z</time>
      </trkpt>
      <trkpt lat="46.60436" lon="-1.75934">
        <ele>37.401859553562</ele>
        <time>2019-10-18T12:52:59Z</time>
      </trkpt>
      <trkpt lat="46.60445" lon="-1.75936">
        <ele>39.402159943653</ele>
        <time>2019-10-18T12:53:04Z</time>
      </trkpt>
      <trkpt lat="46.60452" lon="-1.75941">
        <ele>41.402321992613</ele>
        <time>2019-10-18T12:53:10Z</time>
      </trkpt>
      <trkpt lat="46.60458" lon="-1.75949">
        <ele>43.40244973864</ele>
        <time>2019-10-18T12:53:17Z</time>
      </trkpt>
      <trkpt lat="46.60464" lon="-1.75958">
        <ele>44.40254028897</ele>
        <time>2019-10-18T12:53:24Z</time>
      </trkpt>
      <trkpt lat="46.60471" lon="-1.75965">
        <ele>44.402667841714</ele>
        <time>2019-10-18T12:53:29Z</time>
      </trkpt>
      <trkpt lat="46.60478" lon="-1.75972">
        <ele>46.40280378988</ele>
        <time>2019-10-18T12:53:37Z</time>
      </trkpt>
      <trkpt lat="46.60484" lon="-1.75981">
        <ele>46.402902979838</ele>
        <time>2019-10-18T12:53:43Z</time>
      </trkpt>
      <trkpt lat="46.6049" lon="-1.75988">
        <ele>46.40301040246</ele>
        <time>2019-10-18T12:53:49Z</time>
      </trkpt>
      <trkpt lat="46.60496" lon="-1.75996">
        <ele>47.403127124151</ele>
        <time>2019-10-18T12:53:59Z</time>
      </trkpt>
      <trkpt lat="46.60502" lon="-1.76004">
        <ele>47.403208484599</ele>
        <time>2019-10-18T12:54:06Z</time>
      </trkpt>
      <trkpt lat="46.60509" lon="-1.76013">
        <ele>45.40331991372</ele>
        <time>2019-10-18T12:54:13Z</time>
      </trkpt>
      <trkpt lat="46.60512" lon="-1.76023">
        <ele>44.403295556724</ele>
        <time>2019-10-18T12:54:21Z</time>
      </trkpt>
      <trkpt lat="46.6052" lon="-1.76028">
        <ele>45.40348858783</ele>
        <time>2019-10-18T12:54:26Z</time>
      </trkpt>
      <trkpt lat="46.60526" lon="-1.76036">
        <ele>45.403591149285</ele>
        <time>2019-10-18T12:54:35Z</time>
      </trkpt>
      <trkpt lat="46.60533" lon="-1.76043">
        <ele>45.403724760179</ele>
        <time>2019-10-18T12:54:41Z</time>
      </trkpt>
      <trkpt lat="46.60539" lon="-1.76051">
        <ele>44.403815579776</ele>
        <time>2019-10-18T12:54:49Z</time>
      </trkpt>
      <trkpt lat="46.60545" lon="-1.76059">
        <ele>44.403919583723</ele>
        <time>2019-10-18T12:54:57Z</time>
      </trkpt>
      <trkpt lat="46.60551" lon="-1.76065">
        <ele>44.40407937148</ele>
        <time>2019-10-18T12:55:03Z</time>
      </trkpt>
      <trkpt lat="46.60559" lon="-1.76072">
        <ele>45.404252271349</ele>
        <time>2019-10-18T12:55:10Z</time>
      </trkpt>
      <trkpt lat="46.60566" lon="-1.7608">
        <ele>47.404388958665</ele>
        <time>2019-10-18T12:55:18Z</time>
      </trkpt>
      <trkpt lat="46.60572" lon="-1.76089">
        <ele>48.404452569373</ele>
        <time>2019-10-18T12:55:25Z</time>
      </trkpt>
      <trkpt lat="46.60578" lon="-1.76096">
        <ele>48.404586158969</ele>
        <time>2019-10-18T12:55:32Z</time>
      </trkpt>
      <trkpt lat="46.60585" lon="-1.76103">
        <ele>48.404723503717</ele>
        <time>2019-10-18T12:55:39Z</time>
      </trkpt>
      <trkpt lat="46.60592" lon="-1.7611">
        <ele>47.40485637129</ele>
        <time>2019-10-18T12:55:47Z</time>
      </trkpt>
      <trkpt lat="46.60598" lon="-1.76118">
        <ele>46.404956268191</ele>
        <time>2019-10-18T12:55:54Z</time>
      </trkpt>
      <trkpt lat="46.60604" lon="-1.76127">
        <ele>46.405024813557</ele>
        <time>2019-10-18T12:56:01Z</time>
      </trkpt>
      <trkpt lat="46.6061" lon="-1.76135">
        <ele>47.405139858401</ele>
        <time>2019-10-18T12:56:08Z</time>
      </trkpt>
      <trkpt lat="46.60616" lon="-1.76143">
        <ele>47.405233369124</ele>
        <time>2019-10-18T12:56:14Z</time>
      </trkpt>
      <trkpt lat="46.60623" lon="-1.76149">
        <ele>47.405377574128</ele>
        <time>2019-10-18T12:56:21Z</time>
      </trkpt>
      <trkpt lat="46.6063" lon="-1.76156">
        <ele>44.405528535924</ele>
        <time>2019-10-18T12:56:27Z</time>
      </trkpt>
      <trkpt lat="46.60635" lon="-1.76165">
        <ele>45.405568483037</ele>
        <time>2019-10-18T12:56:35Z</time>
      </trkpt>
      <trkpt lat="46.60641" lon="-1.76173">
        <ele>45.405665801265</ele>
        <time>2019-10-18T12:56:41Z</time>
      </trkpt>
      <trkpt lat="46.60648" lon="-1.7618">
        <ele>45.405798250458</ele>
        <time>2019-10-18T12:56:47Z</time>
      </trkpt>
      <trkpt lat="46.60653" lon="-1.76188">
        <ele>46.405868196247</ele>
        <time>2019-10-18T12:56:54Z</time>
      </trkpt>
      <trkpt lat="46.6066" lon="-1.76195">
        <ele>45.406005224107</ele>
        <time>2019-10-18T12:57:00Z</time>
      </trkpt>
      <trkpt lat="46.60665" lon="-1.76204">
        <ele>44.406065725323</ele>
        <time>2019-10-18T12:57:06Z</time>
      </trkpt>
      <trkpt lat="46.60671" lon="-1.76212">
        <ele>44.406154626516</ele>
        <time>2019-10-18T12:57:13Z</time>
      </trkpt>
      <trkpt lat="46.60678" lon="-1.7622">
        <ele>43.406273710512</ele>
        <time>2019-10-18T12:57:20Z</time>
      </trkpt>
      <trkpt lat="46.60685" lon="-1.76227">
        <ele>43.406423036532</ele>
        <time>2019-10-18T12:57:27Z</time>
      </trkpt>
      <trkpt lat="46.60692" lon="-1.76233">
        <ele>42.406589100151</ele>
        <time>2019-10-18T12:57:34Z</time>
      </trkpt>
      <trkpt lat="46.60698" lon="-1.76243">
        <ele>42.406658581495</ele>
        <time>2019-10-18T12:57:41Z</time>
      </trkpt>
      <trkpt lat="46.60704" lon="-1.76252">
        <ele>42.406716588038</ele>
        <time>2019-10-18T12:57:48Z</time>
      </trkpt>
      <trkpt lat="46.60712" lon="-1.76258">
        <ele>41.406914112015</ele>
        <time>2019-10-18T12:57:55Z</time>
      </trkpt>
      <trkpt lat="46.60716" lon="-1.76268">
        <ele>41.406895230554</ele>
        <time>2019-10-18T12:58:03Z</time>
      </trkpt>
      <trkpt lat="46.60718" lon="-1.7628">
        <ele>42.406765563613</ele>
        <time>2019-10-18T12:58:14Z</time>
      </trkpt>
      <trkpt lat="46.60719" lon="-1.76292">
        <ele>43.406591691517</ele>
        <time>2019-10-18T12:58:21Z</time>
      </trkpt>
      <trkpt lat="46.6072" lon="-1.76304">
        <ele>44.406423588448</ele>
        <time>2019-10-18T12:58:27Z</time>
      </trkpt>
      <trkpt lat="46.60721" lon="-1.76316">
        <ele>42.406277107154</ele>
        <time>2019-10-18T12:58:35Z</time>
      </trkpt>
      <trkpt lat="46.60722" lon="-1.76328">
        <ele>44.406105416397</ele>
        <time>2019-10-18T12:58:43Z</time>
      </trkpt>
      <trkpt lat="46.60723" lon="-1.7634">
        <ele>43.405952466347</ele>
        <time>2019-10-18T12:58:50Z</time>
      </trkpt>
      <trkpt lat="46.60725" lon="-1.76352">
        <ele>42.405803098516</ele>
        <time>2019-10-18T12:58:56Z</time>
      </trkpt>
      <trkpt lat="46.60727" lon="-1.76363">
        <ele>43.405676042117</ele>
        <time>2019-10-18T12:59:03Z</time>
      </trkpt>
      <trkpt lat="46.6073" lon="-1.76374">
        <ele>44.40562039909</ele>
        <time>2019-10-18T12:59:10Z</time>
      </trkpt>
      <trkpt lat="46.60732" lon="-1.76386">
        <ele>44.405476945995</ele>
        <time>2019-10-18T12:59:16Z</time>
      </trkpt>
      <trkpt lat="46.60734" lon="-1.76398">
        <ele>44.405352395401</ele>
        <time>2019-10-18T12:59:23Z</time>
      </trkpt>
      <trkpt lat="46.60736" lon="-1.7641">
        <ele>43.405198274676</ele>
        <time>2019-10-18T12:59:30Z</time>
      </trkpt>
      <trkpt lat="46.6074" lon="-1.76421">
        <ele>45.405172890302</ele>
        <time>2019-10-18T12:59:37Z</time>
      </trkpt>
      <trkpt lat="46.60742" lon="-1.76434">
        <ele>44.405028048843</ele>
        <time>2019-10-18T12:59:44Z</time>
      </trkpt>
      <trkpt lat="46.60744" lon="-1.76445">
        <ele>44.404912774642</ele>
        <time>2019-10-18T12:59:51Z</time>
      </trkpt>
      <trkpt lat="46.60746" lon="-1.76457">
        <ele>44.404783855067</ele>
        <time>2019-10-18T12:59:58Z</time>
      </trkpt>
      <trkpt lat="46.60749" lon="-1.76469">
        <ele>45.404690779121</ele>
        <time>2019-10-18T13:00:06Z</time>
      </trkpt>
      <trkpt lat="46.60751" lon="-1.7648">
        <ele>44.404603188731</ele>
        <time>2019-10-18T13:00:12Z</time>
      </trkpt>
      <trkpt lat="46.60754" lon="-1.76492">
        <ele>43.404496468833</ele>
        <time>2019-10-18T13:00:19Z</time>
      </trkpt>
      <trkpt lat="46.60756" lon="-1.76504">
        <ele>44.404367797501</ele>
        <time>2019-10-18T13:00:27Z</time>
      </trkpt>
      <trkpt lat="46.60757" lon="-1.76516">
        <ele>46.404176890438</ele>
        <time>2019-10-18T13:00:34Z</time>
      </trkpt>
      <trkpt lat="46.60759" lon="-1.76528">
        <ele>46.404044892174</ele>
        <time>2019-10-18T13:00:41Z</time>
      </trkpt>
      <trkpt lat="46.60761" lon="-1.7654">
        <ele>44.403932926767</ele>
        <time>2019-10-18T13:00:49Z</time>
      </trkpt>
      <trkpt lat="46.60763" lon="-1.76551">
        <ele>43.403826907656</ele>
        <time>2019-10-18T13:00:56Z</time>
      </trkpt>
      <trkpt lat="46.60765" lon="-1.76563">
        <ele>42.403675734101</ele>
        <time>2019-10-18T13:01:04Z</time>
      </trkpt>
      <trkpt lat="46.60767" lon="-1.76575">
        <ele>42.403548813734</ele>
        <time>2019-10-18T13:01:12Z</time>
      </trkpt>
      <trkpt lat="46.60768" lon="-1.76588">
        <ele>43.403378676151</ele>
        <time>2019-10-18T13:01:21Z</time>
      </trkpt>
      <trkpt lat="46.6077" lon="-1.766">
        <ele>44.403225407756</ele>
        <time>2019-10-18T13:01:28Z</time>
      </trkpt>
      <trkpt lat="46.60771" lon="-1.76612">
        <ele>45.403060558257</ele>
        <time>2019-10-18T13:01:34Z</time>
      </trkpt>
      <trkpt lat="46.60774" lon="-1.76624">
        <ele>45.402957029686</ele>
        <time>2019-10-18T13:01:41Z</time>
      </trkpt>
      <trkpt lat="46.60777" lon="-1.76636">
        <ele>45.402854688638</ele>
        <time>2019-10-18T13:01:49Z</time>
      </trkpt>
      <trkpt lat="46.60778" lon="-1.76647">
        <ele>46.40271761678</ele>
        <time>2019-10-18T13:01:56Z</time>
      </trkpt>
      <trkpt lat="46.60781" lon="-1.76659">
        <ele>45.402606076418</ele>
        <time>2019-10-18T13:02:04Z</time>
      </trkpt>
      <trkpt lat="46.60782" lon="-1.76672">
        <ele>45.402438292557</ele>
        <time>2019-10-18T13:02:12Z</time>
      </trkpt>
      <trkpt lat="46.60785" lon="-1.76683">
        <ele>45.402342297307</ele>
        <time>2019-10-18T13:02:19Z</time>
      </trkpt>
      <trkpt lat="46.60786" lon="-1.76695">
        <ele>44.402168228226</ele>
        <time>2019-10-18T13:02:27Z</time>
      </trkpt>
      <trkpt lat="46.60787" lon="-1.76707">
        <ele>43.402034531283</ele>
        <time>2019-10-18T13:02:33Z</time>
      </trkpt>
      <trkpt lat="46.60788" lon="-1.76719">
        <ele>43.401832663409</ele>
        <time>2019-10-18T13:02:42Z</time>
      </trkpt>
      <trkpt lat="46.60783" lon="-1.76729">
        <ele>43.401472781607</ele>
        <time>2019-10-18T13:02:51Z</time>
      </trkpt>
      <trkpt lat="46.60781" lon="-1.7674">
        <ele>43.401208719055</ele>
        <time>2019-10-18T13:02:58Z</time>
      </trkpt>
      <trkpt lat="46.60778" lon="-1.76752">
        <ele>45.40091740898</ele>
        <time>2019-10-18T13:03:06Z</time>
      </trkpt>
      <trkpt lat="46.60776" lon="-1.76764">
        <ele>46.400600549316</ele>
        <time>2019-10-18T13:03:16Z</time>
      </trkpt>
      <trkpt lat="46.60774" lon="-1.76776">
        <ele>46.40034322383</ele>
        <time>2019-10-18T13:03:23Z</time>
      </trkpt>
      <trkpt lat="46.60772" lon="-1.76788">
        <ele>44.400064752813</ele>
        <time>2019-10-18T13:03:31Z</time>
      </trkpt>
      <trkpt lat="46.60769" lon="-1.76799">
        <ele>46.399744179555</ele>
        <time>2019-10-18T13:03:40Z</time>
      </trkpt>
      <trkpt lat="46.60764" lon="-1.7681">
        <ele>46.399411495081</ele>
        <time>2019-10-18T13:03:51Z</time>
      </trkpt>
      <trkpt lat="46.60763" lon="-1.7682">
        <ele>44.399185544584</ele>
        <time>2019-10-18T13:04:11Z</time>
      </trkpt>
      <trkpt lat="46.60761" lon="-1.76833">
        <ele>45.39889369267</ele>
        <time>2019-10-18T13:04:20Z</time>
      </trkpt>
      <trkpt lat="46.60758" lon="-1.76843">
        <ele>43.398582530633</ele>
        <time>2019-10-18T13:04:26Z</time>
      </trkpt>
      <trkpt lat="46.60755" lon="-1.76854">
        <ele>44.398290141481</ele>
        <time>2019-10-18T13:04:32Z</time>
      </trkpt>
      <trkpt lat="46.60754" lon="-1.76866">
        <ele>43.398033571538</ele>
        <time>2019-10-18T13:04:38Z</time>
      </trkpt>
      <trkpt lat="46.6075" lon="-1.76877">
        <ele>43.397708682249</ele>
        <time>2019-10-18T13:04:45Z</time>
      </trkpt>
      <trkpt lat="46.60746" lon="-1.76887">
        <ele>43.397392917746</ele>
        <time>2019-10-18T13:04:50Z</time>
      </trkpt>
      <trkpt lat="46.60744" lon="-1.76899">
        <ele>46.397097789205</ele>
        <time>2019-10-18T13:04:56Z</time>
      </trkpt>
      <trkpt lat="46.60745" lon="-1.76911">
        <ele>49.396929065028</ele>
        <time>2019-10-18T13:05:02Z</time>
      </trkpt>
      <trkpt lat="46.60745" lon="-1.76923">
        <ele>48.396755899632</ele>
        <time>2019-10-18T13:05:09Z</time>
      </trkpt>
      <trkpt lat="46.60748" lon="-1.76936">
        <ele>47.396616058803</ele>
        <time>2019-10-18T13:05:17Z</time>
      </trkpt>
      <trkpt lat="46.6075" lon="-1.76948">
        <ele>47.396514149803</ele>
        <time>2019-10-18T13:05:22Z</time>
      </trkpt>
      <trkpt lat="46.60754" lon="-1.76958">
        <ele>45.396459765659</ele>
        <time>2019-10-18T13:05:27Z</time>
      </trkpt>
      <trkpt lat="46.60757" lon="-1.7697">
        <ele>46.396356101187</ele>
        <time>2019-10-18T13:05:34Z</time>
      </trkpt>
      <trkpt lat="46.60758" lon="-1.76982">
        <ele>45.396207350519</ele>
        <time>2019-10-18T13:05:40Z</time>
      </trkpt>
      <trkpt lat="46.60759" lon="-1.76994">
        <ele>43.396034612338</ele>
        <time>2019-10-18T13:05:48Z</time>
      </trkpt>
      <trkpt lat="46.60761" lon="-1.77005">
        <ele>42.395914732543</ele>
        <time>2019-10-18T13:05:56Z</time>
      </trkpt>
      <trkpt lat="46.60762" lon="-1.77018">
        <ele>41.395717043019</ele>
        <time>2019-10-18T13:06:02Z</time>
      </trkpt>
      <trkpt lat="46.60762" lon="-1.77031">
        <ele>43.395515362892</ele>
        <time>2019-10-18T13:06:10Z</time>
      </trkpt>
      <trkpt lat="46.60763" lon="-1.77044">
        <ele>43.395329101523</ele>
        <time>2019-10-18T13:06:16Z</time>
      </trkpt>
      <trkpt lat="46.60761" lon="-1.77056">
        <ele>43.395054194027</ele>
        <time>2019-10-18T13:06:23Z</time>
      </trkpt>
      <trkpt lat="46.6076" lon="-1.77068">
        <ele>43.394808585676</ele>
        <time>2019-10-18T13:06:30Z</time>
      </trkpt>
      <trkpt lat="46.60758" lon="-1.77079">
        <ele>45.394527041779</ele>
        <time>2019-10-18T13:06:37Z</time>
      </trkpt>
      <trkpt lat="46.60756" lon="-1.77091">
        <ele>44.394264987988</ele>
        <time>2019-10-18T13:06:44Z</time>
      </trkpt>
      <trkpt lat="46.60754" lon="-1.77101">
        <ele>45.394005779161</ele>
        <time>2019-10-18T13:06:50Z</time>
      </trkpt>
      <trkpt lat="46.6075" lon="-1.77112">
        <ele>45.393683538313</ele>
        <time>2019-10-18T13:06:56Z</time>
      </trkpt>
      <trkpt lat="46.60747" lon="-1.77123">
        <ele>46.393375075597</ele>
        <time>2019-10-18T13:07:02Z</time>
      </trkpt>
      <trkpt lat="46.60743" lon="-1.77132">
        <ele>46.39306210611</ele>
        <time>2019-10-18T13:07:07Z</time>
      </trkpt>
      <trkpt lat="46.6074" lon="-1.77144">
        <ele>46.39275405049</ele>
        <time>2019-10-18T13:07:13Z</time>
      </trkpt>
      <trkpt lat="46.60736" lon="-1.77155">
        <ele>46.392433181787</ele>
        <time>2019-10-18T13:07:20Z</time>
      </trkpt>
      <trkpt lat="46.60733" lon="-1.77167">
        <ele>46.392094848593</ele>
        <time>2019-10-18T13:07:29Z</time>
      </trkpt>
      <trkpt lat="46.6073" lon="-1.77178">
        <ele>45.391794639481</ele>
        <time>2019-10-18T13:07:37Z</time>
      </trkpt>
      <trkpt lat="46.60726" lon="-1.77189">
        <ele>44.391468167107</ele>
        <time>2019-10-18T13:07:45Z</time>
      </trkpt>
      <trkpt lat="46.60721" lon="-1.77199">
        <ele>44.391112447648</ele>
        <time>2019-10-18T13:07:52Z</time>
      </trkpt>
      <trkpt lat="46.60717" lon="-1.77209">
        <ele>44.390787809403</ele>
        <time>2019-10-18T13:07:59Z</time>
      </trkpt>
      <trkpt lat="46.60711" lon="-1.77219">
        <ele>45.390409212226</ele>
        <time>2019-10-18T13:08:06Z</time>
      </trkpt>
      <trkpt lat="46.60707" lon="-1.77229">
        <ele>46.39008753864</ele>
        <time>2019-10-18T13:08:20Z</time>
      </trkpt>
      <trkpt lat="46.60703" lon="-1.77239">
        <ele>45.389776419392</ele>
        <time>2019-10-18T13:08:26Z</time>
      </trkpt>
      <trkpt lat="46.60703" lon="-1.77251">
        <ele>46.389594794676</ele>
        <time>2019-10-18T13:08:32Z</time>
      </trkpt>
      <trkpt lat="46.60708" lon="-1.77262">
        <ele>46.38955255878</ele>
        <time>2019-10-18T13:08:39Z</time>
      </trkpt>
      <trkpt lat="46.60712" lon="-1.77273">
        <ele>46.389519468447</ele>
        <time>2019-10-18T13:08:46Z</time>
      </trkpt>
      <trkpt lat="46.60716" lon="-1.77284">
        <ele>46.389472288306</ele>
        <time>2019-10-18T13:08:52Z</time>
      </trkpt>
      <trkpt lat="46.60719" lon="-1.77295">
        <ele>46.38940822351</ele>
        <time>2019-10-18T13:08:58Z</time>
      </trkpt>
      <trkpt lat="46.60723" lon="-1.77305">
        <ele>47.389369818921</ele>
        <time>2019-10-18T13:09:04Z</time>
      </trkpt>
      <trkpt lat="46.60727" lon="-1.77315">
        <ele>46.389367562801</ele>
        <time>2019-10-18T13:09:11Z</time>
      </trkpt>
      <trkpt lat="46.60731" lon="-1.77325">
        <ele>46.389339536718</ele>
        <time>2019-10-18T13:09:18Z</time>
      </trkpt>
      <trkpt lat="46.60736" lon="-1.77336">
        <ele>46.389307890509</ele>
        <time>2019-10-18T13:09:25Z</time>
      </trkpt>
      <trkpt lat="46.6074" lon="-1.77345">
        <ele>44.389310434275</ele>
        <time>2019-10-18T13:09:31Z</time>
      </trkpt>
      <trkpt lat="46.60745" lon="-1.77355">
        <ele>44.389295704716</ele>
        <time>2019-10-18T13:09:38Z</time>
      </trkpt>
      <trkpt lat="46.60748" lon="-1.77367">
        <ele>44.389213338896</ele>
        <time>2019-10-18T13:09:45Z</time>
      </trkpt>
      <trkpt lat="46.60744" lon="-1.77378">
        <ele>44.38886431773</ele>
        <time>2019-10-18T13:09:53Z</time>
      </trkpt>
      <trkpt lat="46.60736" lon="-1.77385">
        <ele>44.388470021761</ele>
        <time>2019-10-18T13:10:19Z</time>
      </trkpt>
      <trkpt lat="46.6073" lon="-1.77393">
        <ele>41.38813423557</ele>
        <time>2019-10-18T13:11:15Z</time>
      </trkpt>
      <trkpt lat="46.60722" lon="-1.77397">
        <ele>42.387758256667</ele>
        <time>2019-10-18T13:11:22Z</time>
      </trkpt>
      <trkpt lat="46.60715" lon="-1.77401">
        <ele>42.387430350016</ele>
        <time>2019-10-18T13:11:28Z</time>
      </trkpt>
      <trkpt lat="46.60708" lon="-1.77407">
        <ele>42.387089254249</ele>
        <time>2019-10-18T13:11:34Z</time>
      </trkpt>
      <trkpt lat="46.60702" lon="-1.77413">
        <ele>43.386752546517</ele>
        <time>2019-10-18T13:11:40Z</time>
      </trkpt>
      <trkpt lat="46.60695" lon="-1.77418">
        <ele>44.386409690123</ele>
        <time>2019-10-18T13:11:46Z</time>
      </trkpt>
      <trkpt lat="46.60688" lon="-1.77426">
        <ele>44.386027564473</ele>
        <time>2019-10-18T13:11:53Z</time>
      </trkpt>
      <trkpt lat="46.6068" lon="-1.77431">
        <ele>43.385638413218</ele>
        <time>2019-10-18T13:12:00Z</time>
      </trkpt>
      <trkpt lat="46.60673" lon="-1.77438">
        <ele>43.38526984702</ele>
        <time>2019-10-18T13:12:07Z</time>
      </trkpt>
      <trkpt lat="46.60665" lon="-1.77444">
        <ele>45.384883898553</ele>
        <time>2019-10-18T13:12:15Z</time>
      </trkpt>
      <trkpt lat="46.60658" lon="-1.77449">
        <ele>44.384540601414</ele>
        <time>2019-10-18T13:12:21Z</time>
      </trkpt>
      <trkpt lat="46.6065" lon="-1.77455">
        <ele>44.384169491055</ele>
        <time>2019-10-18T13:12:27Z</time>
      </trkpt>
      <trkpt lat="46.60643" lon="-1.77462">
        <ele>43.383782932838</ele>
        <time>2019-10-18T13:12:35Z</time>
      </trkpt>
      <trkpt lat="46.60635" lon="-1.77469">
        <ele>43.383395239945</ele>
        <time>2019-10-18T13:12:42Z</time>
      </trkpt>
      <trkpt lat="46.60628" lon="-1.77476">
        <ele>43.383007783472</ele>
        <time>2019-10-18T13:12:49Z</time>
      </trkpt>
      <trkpt lat="46.60621" lon="-1.77481">
        <ele>43.382658576502</ele>
        <time>2019-10-18T13:12:55Z</time>
      </trkpt>
      <trkpt lat="46.60614" lon="-1.77488">
        <ele>43.382290435011</ele>
        <time>2019-10-18T13:13:03Z</time>
      </trkpt>
      <trkpt lat="46.60606" lon="-1.77495">
        <ele>43.381916058786</ele>
        <time>2019-10-18T13:13:09Z</time>
      </trkpt>
      <trkpt lat="46.60599" lon="-1.775">
        <ele>44.381560957757</ele>
        <time>2019-10-18T13:13:16Z</time>
      </trkpt>
      <trkpt lat="46.60592" lon="-1.77507">
        <ele>45.381187648534</ele>
        <time>2019-10-18T13:13:23Z</time>
      </trkpt>
      <trkpt lat="46.60585" lon="-1.77515">
        <ele>45.380821581366</ele>
        <time>2019-10-18T13:13:30Z</time>
      </trkpt>
      <trkpt lat="46.60577" lon="-1.7752">
        <ele>44.380439179324</ele>
        <time>2019-10-18T13:13:38Z</time>
      </trkpt>
      <trkpt lat="46.6057" lon="-1.77525">
        <ele>42.3801147011</ele>
        <time>2019-10-18T13:13:44Z</time>
      </trkpt>
      <trkpt lat="46.60563" lon="-1.77531">
        <ele>43.379743181838</ele>
        <time>2019-10-18T13:13:50Z</time>
      </trkpt>
      <trkpt lat="46.60555" lon="-1.77536">
        <ele>45.379391435064</ele>
        <time>2019-10-18T13:13:57Z</time>
      </trkpt>
      <trkpt lat="46.60547" lon="-1.77539">
        <ele>44.379037961219</ele>
        <time>2019-10-18T13:14:04Z</time>
      </trkpt>
      <trkpt lat="46.60539" lon="-1.77545">
        <ele>45.378651636641</ele>
        <time>2019-10-18T13:14:12Z</time>
      </trkpt>
      <trkpt lat="46.60531" lon="-1.7755">
        <ele>44.378279664914</ele>
        <time>2019-10-18T13:14:19Z</time>
      </trkpt>
      <trkpt lat="46.60523" lon="-1.77554">
        <ele>43.377936808016</ele>
        <time>2019-10-18T13:14:26Z</time>
      </trkpt>
      <trkpt lat="46.60516" lon="-1.77557">
        <ele>42.377603667073</ele>
        <time>2019-10-18T13:14:32Z</time>
      </trkpt>
      <trkpt lat="46.60507" lon="-1.77559">
        <ele>42.377269507601</ele>
        <time>2019-10-18T13:14:39Z</time>
      </trkpt>
      <trkpt lat="46.605" lon="-1.77564">
        <ele>43.376915575677</ele>
        <time>2019-10-18T13:14:46Z</time>
      </trkpt>
      <trkpt lat="46.60491" lon="-1.77568">
        <ele>42.376550355139</ele>
        <time>2019-10-18T13:14:53Z</time>
      </trkpt>
      <trkpt lat="46.60483" lon="-1.77571">
        <ele>42.376195684082</ele>
        <time>2019-10-18T13:15:00Z</time>
      </trkpt>
      <trkpt lat="46.60476" lon="-1.77576">
        <ele>41.375848636455</ele>
        <time>2019-10-18T13:15:08Z</time>
      </trkpt>
      <trkpt lat="46.60468" lon="-1.7758">
        <ele>41.375487447947</ele>
        <time>2019-10-18T13:15:15Z</time>
      </trkpt>
      <trkpt lat="46.6046" lon="-1.77584">
        <ele>40.375132782875</ele>
        <time>2019-10-18T13:15:22Z</time>
      </trkpt>
      <trkpt lat="46.60452" lon="-1.77588">
        <ele>39.374803773913</ele>
        <time>2019-10-18T13:15:28Z</time>
      </trkpt>
      <trkpt lat="46.60445" lon="-1.77592">
        <ele>39.374472409595</ele>
        <time>2019-10-18T13:15:34Z</time>
      </trkpt>
      <trkpt lat="46.60438" lon="-1.77596">
        <ele>38.374172073541</ele>
        <time>2019-10-18T13:15:40Z</time>
      </trkpt>
      <trkpt lat="46.6043" lon="-1.77601">
        <ele>38.373800332511</ele>
        <time>2019-10-18T13:15:46Z</time>
      </trkpt>
      <trkpt lat="46.60422" lon="-1.77605">
        <ele>40.373444660711</ele>
        <time>2019-10-18T13:15:52Z</time>
      </trkpt>
      <trkpt lat="46.60415" lon="-1.77609">
        <ele>40.373109690855</ele>
        <time>2019-10-18T13:15:58Z</time>
      </trkpt>
      <trkpt lat="46.60407" lon="-1.77615">
        <ele>40.372751132773</ele>
        <time>2019-10-18T13:16:05Z</time>
      </trkpt>
      <trkpt lat="46.60401" lon="-1.77622">
        <ele>39.37239715547</ele>
        <time>2019-10-18T13:16:12Z</time>
      </trkpt>
      <trkpt lat="46.60396" lon="-1.77632">
        <ele>39.372070100822</ele>
        <time>2019-10-18T13:16:19Z</time>
      </trkpt>
      <trkpt lat="46.60391" lon="-1.77642">
        <ele>39.371712080177</ele>
        <time>2019-10-18T13:16:26Z</time>
      </trkpt>
      <trkpt lat="46.60387" lon="-1.77653">
        <ele>38.371378676551</ele>
        <time>2019-10-18T13:16:33Z</time>
      </trkpt>
      <trkpt lat="46.60382" lon="-1.77664">
        <ele>38.371027117343</ele>
        <time>2019-10-18T13:16:40Z</time>
      </trkpt>
      <trkpt lat="46.60377" lon="-1.77674">
        <ele>38.370682691287</ele>
        <time>2019-10-18T13:16:48Z</time>
      </trkpt>
      <trkpt lat="46.60372" lon="-1.77683">
        <ele>38.37035375513</ele>
        <time>2019-10-18T13:16:54Z</time>
      </trkpt>
      <trkpt lat="46.60367" lon="-1.77693">
        <ele>38.370022509773</ele>
        <time>2019-10-18T13:17:01Z</time>
      </trkpt>
      <trkpt lat="46.60362" lon="-1.77703">
        <ele>36.369662933206</ele>
        <time>2019-10-18T13:17:08Z</time>
      </trkpt>
      <trkpt lat="46.60357" lon="-1.77713">
        <ele>36.36933762712</ele>
        <time>2019-10-18T13:17:15Z</time>
      </trkpt>
      <trkpt lat="46.60351" lon="-1.77721">
        <ele>35.368983933478</ele>
        <time>2019-10-18T13:17:22Z</time>
      </trkpt>
      <trkpt lat="46.60344" lon="-1.77728">
        <ele>34.368625046347</ele>
        <time>2019-10-18T13:17:29Z</time>
      </trkpt>
      <trkpt lat="46.60337" lon="-1.77734">
        <ele>34.368259665058</ele>
        <time>2019-10-18T13:17:36Z</time>
      </trkpt>
      <trkpt lat="46.6033" lon="-1.7774">
        <ele>35.367904781606</ele>
        <time>2019-10-18T13:17:42Z</time>
      </trkpt>
      <trkpt lat="46.60323" lon="-1.77747">
        <ele>36.367540966116</ele>
        <time>2019-10-18T13:17:48Z</time>
      </trkpt>
      <trkpt lat="46.60315" lon="-1.77754">
        <ele>37.367163444221</ele>
        <time>2019-10-18T13:17:55Z</time>
      </trkpt>
      <trkpt lat="46.60309" lon="-1.77762">
        <ele>35.366787004188</ele>
        <time>2019-10-18T13:18:05Z</time>
      </trkpt>
      <trkpt lat="46.60302" lon="-1.77769">
        <ele>34.366432588912</ele>
        <time>2019-10-18T13:18:12Z</time>
      </trkpt>
      <trkpt lat="46.60295" lon="-1.77776">
        <ele>36.366060407772</ele>
        <time>2019-10-18T13:18:19Z</time>
      </trkpt>
      <trkpt lat="46.60287" lon="-1.77783">
        <ele>36.365679738202</ele>
        <time>2019-10-18T13:18:27Z</time>
      </trkpt>
      <trkpt lat="46.6028" lon="-1.77789">
        <ele>36.3653324518</ele>
        <time>2019-10-18T13:18:34Z</time>
      </trkpt>
      <trkpt lat="46.60273" lon="-1.77795">
        <ele>35.364996517284</ele>
        <time>2019-10-18T13:18:40Z</time>
      </trkpt>
      <trkpt lat="46.60267" lon="-1.77801">
        <ele>36.364673859996</ele>
        <time>2019-10-18T13:18:46Z</time>
      </trkpt>
      <trkpt lat="46.60259" lon="-1.77807">
        <ele>36.364298473833</ele>
        <time>2019-10-18T13:18:52Z</time>
      </trkpt>
      <trkpt lat="46.60252" lon="-1.77814">
        <ele>35.363918724509</ele>
        <time>2019-10-18T13:19:00Z</time>
      </trkpt>
      <trkpt lat="46.60246" lon="-1.77822">
        <ele>35.363569825017</ele>
        <time>2019-10-18T13:19:07Z</time>
      </trkpt>
      <trkpt lat="46.60239" lon="-1.77829">
        <ele>34.363220066465</ele>
        <time>2019-10-18T13:19:14Z</time>
      </trkpt>
      <trkpt lat="46.60233" lon="-1.77836">
        <ele>35.362890717028</ele>
        <time>2019-10-18T13:19:20Z</time>
      </trkpt>
      <trkpt lat="46.60227" lon="-1.77844">
        <ele>34.362526646974</ele>
        <time>2019-10-18T13:19:27Z</time>
      </trkpt>
      <trkpt lat="46.6022" lon="-1.77853">
        <ele>34.362156313772</ele>
        <time>2019-10-18T13:19:33Z</time>
      </trkpt>
      <trkpt lat="46.60215" lon="-1.77862">
        <ele>35.3618056229</ele>
        <time>2019-10-18T13:19:41Z</time>
      </trkpt>
      <trkpt lat="46.60209" lon="-1.77871">
        <ele>35.361469509414</ele>
        <time>2019-10-18T13:19:47Z</time>
      </trkpt>
      <trkpt lat="46.60204" lon="-1.77881">
        <ele>35.361115819638</ele>
        <time>2019-10-18T13:19:54Z</time>
      </trkpt>
      <trkpt lat="46.60198" lon="-1.7789">
        <ele>35.360772834332</ele>
        <time>2019-10-18T13:20:00Z</time>
      </trkpt>
      <trkpt lat="46.60192" lon="-1.77899">
        <ele>35.360398001482</ele>
        <time>2019-10-18T13:20:07Z</time>
      </trkpt>
      <trkpt lat="46.60185" lon="-1.77907">
        <ele>34.360033970359</ele>
        <time>2019-10-18T13:20:14Z</time>
      </trkpt>
      <trkpt lat="46.60179" lon="-1.77917">
        <ele>35.359673531997</ele>
        <time>2019-10-18T13:20:22Z</time>
      </trkpt>
      <trkpt lat="46.60173" lon="-1.77926">
        <ele>35.359300479322</ele>
        <time>2019-10-18T13:20:29Z</time>
      </trkpt>
      <trkpt lat="46.60167" lon="-1.77934">
        <ele>35.358955935741</ele>
        <time>2019-10-18T13:20:35Z</time>
      </trkpt>
      <trkpt lat="46.60161" lon="-1.77943">
        <ele>35.358601939746</ele>
        <time>2019-10-18T13:20:42Z</time>
      </trkpt>
      <trkpt lat="46.60156" lon="-1.77953">
        <ele>34.358247771702</ele>
        <time>2019-10-18T13:20:49Z</time>
      </trkpt>
      <trkpt lat="46.6015" lon="-1.77962">
        <ele>34.357907395641</ele>
        <time>2019-10-18T13:20:56Z</time>
      </trkpt>
      <trkpt lat="46.60145" lon="-1.77971">
        <ele>33.357569422593</ele>
        <time>2019-10-18T13:21:03Z</time>
      </trkpt>
      <trkpt lat="46.60139" lon="-1.7798">
        <ele>34.357212789831</ele>
        <time>2019-10-18T13:21:10Z</time>
      </trkpt>
      <trkpt lat="46.60133" lon="-1.77989">
        <ele>33.356848441236</ele>
        <time>2019-10-18T13:21:17Z</time>
      </trkpt>
      <trkpt lat="46.60126" lon="-1.77997">
        <ele>33.356494314649</ele>
        <time>2019-10-18T13:21:24Z</time>
      </trkpt>
      <trkpt lat="46.60121" lon="-1.78006">
        <ele>32.356149026164</ele>
        <time>2019-10-18T13:21:31Z</time>
      </trkpt>
      <trkpt lat="46.60116" lon="-1.78017">
        <ele>33.35581476122</ele>
        <time>2019-10-18T13:21:38Z</time>
      </trkpt>
      <trkpt lat="46.60112" lon="-1.78028">
        <ele>33.355486495856</ele>
        <time>2019-10-18T13:21:46Z</time>
      </trkpt>
      <trkpt lat="46.6011" lon="-1.7804">
        <ele>34.355234293317</ele>
        <time>2019-10-18T13:21:55Z</time>
      </trkpt>
      <trkpt lat="46.60108" lon="-1.78053">
        <ele>35.354961095684</ele>
        <time>2019-10-18T13:22:02Z</time>
      </trkpt>
      <trkpt lat="46.60106" lon="-1.78065">
        <ele>34.35467460033</ele>
        <time>2019-10-18T13:22:10Z</time>
      </trkpt>
      <trkpt lat="46.60102" lon="-1.78076">
        <ele>34.354373234646</ele>
        <time>2019-10-18T13:22:17Z</time>
      </trkpt>
      <trkpt lat="46.60099" lon="-1.78087">
        <ele>35.354086990453</ele>
        <time>2019-10-18T13:22:23Z</time>
      </trkpt>
      <trkpt lat="46.60097" lon="-1.78098">
        <ele>34.353845946031</ele>
        <time>2019-10-18T13:22:30Z</time>
      </trkpt>
      <trkpt lat="46.60095" lon="-1.7811">
        <ele>32.353556839108</ele>
        <time>2019-10-18T13:22:38Z</time>
      </trkpt>
      <trkpt lat="46.60092" lon="-1.78121">
        <ele>33.353261050187</ele>
        <time>2019-10-18T13:22:46Z</time>
      </trkpt>
      <trkpt lat="46.60089" lon="-1.78133">
        <ele>33.352982593872</ele>
        <time>2019-10-18T13:22:52Z</time>
      </trkpt>
      <trkpt lat="46.60085" lon="-1.78145">
        <ele>34.352670452147</ele>
        <time>2019-10-18T13:22:59Z</time>
      </trkpt>
      <trkpt lat="46.60082" lon="-1.78156">
        <ele>32.352354496978</ele>
        <time>2019-10-18T13:23:06Z</time>
      </trkpt>
      <trkpt lat="46.60077" lon="-1.78167">
        <ele>34.352023995371</ele>
        <time>2019-10-18T13:23:12Z</time>
      </trkpt>
      <trkpt lat="46.60073" lon="-1.78178">
        <ele>35.351717533695</ele>
        <time>2019-10-18T13:23:19Z</time>
      </trkpt>
      <trkpt lat="46.6007" lon="-1.78189">
        <ele>36.351408548344</ele>
        <time>2019-10-18T13:23:26Z</time>
      </trkpt>
      <trkpt lat="46.60066" lon="-1.782">
        <ele>36.351115064198</ele>
        <time>2019-10-18T13:23:33Z</time>
      </trkpt>
      <trkpt lat="46.60062" lon="-1.7821">
        <ele>35.350815932457</ele>
        <time>2019-10-18T13:23:40Z</time>
      </trkpt>
      <trkpt lat="46.60058" lon="-1.7822">
        <ele>36.350481847369</ele>
        <time>2019-10-18T13:23:46Z</time>
      </trkpt>
      <trkpt lat="46.60054" lon="-1.7823">
        <ele>35.350187362999</ele>
        <time>2019-10-18T13:23:52Z</time>
      </trkpt>
      <trkpt lat="46.60051" lon="-1.78241">
        <ele>35.349902406515</ele>
        <time>2019-10-18T13:23:59Z</time>
      </trkpt>
      <trkpt lat="46.60047" lon="-1.78252">
        <ele>35.349590793534</ele>
        <time>2019-10-18T13:24:06Z</time>
      </trkpt>
      <trkpt lat="46.60043" lon="-1.78264">
        <ele>35.349285829174</ele>
        <time>2019-10-18T13:24:13Z</time>
      </trkpt>
      <trkpt lat="46.6004" lon="-1.78275">
        <ele>35.348996801252</ele>
        <time>2019-10-18T13:24:20Z</time>
      </trkpt>
      <trkpt lat="46.60036" lon="-1.78286">
        <ele>35.348687277178</ele>
        <time>2019-10-18T13:24:26Z</time>
      </trkpt>
      <trkpt lat="46.60033" lon="-1.78296">
        <ele>36.348401744351</ele>
        <time>2019-10-18T13:24:32Z</time>
      </trkpt>
      <trkpt lat="46.60029" lon="-1.78307">
        <ele>36.348072190511</ele>
        <time>2019-10-18T13:24:39Z</time>
      </trkpt>
      <trkpt lat="46.60025" lon="-1.78319">
        <ele>36.347771171925</ele>
        <time>2019-10-18T13:24:46Z</time>
      </trkpt>
      <trkpt lat="46.60022" lon="-1.7833">
        <ele>36.347482673012</ele>
        <time>2019-10-18T13:24:52Z</time>
      </trkpt>
      <trkpt lat="46.60019" lon="-1.78339">
        <ele>35.347240250229</ele>
        <time>2019-10-18T13:24:57Z</time>
      </trkpt>
      <trkpt lat="46.60015" lon="-1.78348">
        <ele>36.346933078042</ele>
        <time>2019-10-18T13:25:03Z</time>
      </trkpt>
      <trkpt lat="46.6001" lon="-1.78359">
        <ele>35.346605063617</ele>
        <time>2019-10-18T13:25:10Z</time>
      </trkpt>
      <trkpt lat="46.60005" lon="-1.78369">
        <ele>33.346267507862</ele>
        <time>2019-10-18T13:25:17Z</time>
      </trkpt>
      <trkpt lat="46.60001" lon="-1.78378">
        <ele>34.345976900328</ele>
        <time>2019-10-18T13:25:23Z</time>
      </trkpt>
      <trkpt lat="46.59996" lon="-1.78387">
        <ele>35.345655523365</ele>
        <time>2019-10-18T13:25:30Z</time>
      </trkpt>
      <trkpt lat="46.59992" lon="-1.78398">
        <ele>35.345360745923</ele>
        <time>2019-10-18T13:25:36Z</time>
      </trkpt>
      <trkpt lat="46.59987" lon="-1.78409">
        <ele>35.34501385341</ele>
        <time>2019-10-18T13:25:44Z</time>
      </trkpt>
      <trkpt lat="46.59982" lon="-1.78418">
        <ele>36.344676792204</ele>
        <time>2019-10-18T13:25:50Z</time>
      </trkpt>
      <trkpt lat="46.59977" lon="-1.78427">
        <ele>35.34437087842</ele>
        <time>2019-10-18T13:25:56Z</time>
      </trkpt>
      <trkpt lat="46.59968" lon="-1.78428">
        <ele>35.344046924092</ele>
        <time>2019-10-18T13:26:04Z</time>
      </trkpt>
      <trkpt lat="46.59965" lon="-1.78417">
        <ele>33.344122002761</ele>
        <time>2019-10-18T13:26:12Z</time>
      </trkpt>
      <trkpt lat="46.59962" lon="-1.78406">
        <ele>32.344174540818</ele>
        <time>2019-10-18T13:26:19Z</time>
      </trkpt>
      <trkpt lat="46.59958" lon="-1.78395">
        <ele>32.344207786713</ele>
        <time>2019-10-18T13:26:26Z</time>
      </trkpt>
      <trkpt lat="46.59954" lon="-1.78384">
        <ele>31.344244625841</ele>
        <time>2019-10-18T13:26:33Z</time>
      </trkpt>
      <trkpt lat="46.59949" lon="-1.78373">
        <ele>32.344264567294</ele>
        <time>2019-10-18T13:26:40Z</time>
      </trkpt>
      <trkpt lat="46.59945" lon="-1.78362">
        <ele>32.344296842605</ele>
        <time>2019-10-18T13:26:47Z</time>
      </trkpt>
      <trkpt lat="46.5994" lon="-1.78352">
        <ele>33.34429125412</ele>
        <time>2019-10-18T13:26:53Z</time>
      </trkpt>
      <trkpt lat="46.59936" lon="-1.7834">
        <ele>32.344342359462</ele>
        <time>2019-10-18T13:27:00Z</time>
      </trkpt>
      <trkpt lat="46.59932" lon="-1.78329">
        <ele>34.344386621588</ele>
        <time>2019-10-18T13:27:06Z</time>
      </trkpt>
      <trkpt lat="46.59928" lon="-1.78318">
        <ele>33.344391550072</ele>
        <time>2019-10-18T13:27:14Z</time>
      </trkpt>
      <trkpt lat="46.59924" lon="-1.78307">
        <ele>34.344436982083</ele>
        <time>2019-10-18T13:27:21Z</time>
      </trkpt>
      <trkpt lat="46.5992" lon="-1.78296">
        <ele>35.3444689065</ele>
        <time>2019-10-18T13:27:27Z</time>
      </trkpt>
      <trkpt lat="46.59916" lon="-1.78286">
        <ele>34.344488811453</ele>
        <time>2019-10-18T13:27:37Z</time>
      </trkpt>
      <trkpt lat="46.59912" lon="-1.78275">
        <ele>33.344542499812</ele>
        <time>2019-10-18T13:27:43Z</time>
      </trkpt>
      <trkpt lat="46.59908" lon="-1.78265">
        <ele>33.34458192396</ele>
        <time>2019-10-18T13:27:49Z</time>
      </trkpt>
      <trkpt lat="46.59904" lon="-1.78254">
        <ele>34.344580667104</ele>
        <time>2019-10-18T13:27:55Z</time>
      </trkpt>
      <trkpt lat="46.59899" lon="-1.78245">
        <ele>35.344553581167</ele>
        <time>2019-10-18T13:28:00Z</time>
      </trkpt>
      <trkpt lat="46.59894" lon="-1.78236">
        <ele>35.344548872189</ele>
        <time>2019-10-18T13:28:07Z</time>
      </trkpt>
      <trkpt lat="46.5989" lon="-1.78225">
        <ele>35.344558664379</ele>
        <time>2019-10-18T13:28:14Z</time>
      </trkpt>
      <trkpt lat="46.59886" lon="-1.78215">
        <ele>34.344578560349</ele>
        <time>2019-10-18T13:28:20Z</time>
      </trkpt>
      <trkpt lat="46.59881" lon="-1.78204">
        <ele>33.34459686649</ele>
        <time>2019-10-18T13:28:27Z</time>
      </trkpt>
      <trkpt lat="46.59878" lon="-1.78194">
        <ele>33.344635051723</ele>
        <time>2019-10-18T13:28:33Z</time>
      </trkpt>
      <trkpt lat="46.59873" lon="-1.78184">
        <ele>33.344609906815</ele>
        <time>2019-10-18T13:28:39Z</time>
      </trkpt>
      <trkpt lat="46.59869" lon="-1.78174">
        <ele>34.344630766221</ele>
        <time>2019-10-18T13:28:46Z</time>
      </trkpt>
      <trkpt lat="46.59865" lon="-1.78164">
        <ele>33.344660058285</ele>
        <time>2019-10-18T13:28:52Z</time>
      </trkpt>
      <trkpt lat="46.59862" lon="-1.78152">
        <ele>33.344736826478</ele>
        <time>2019-10-18T13:28:59Z</time>
      </trkpt>
      <trkpt lat="46.59859" lon="-1.7814">
        <ele>33.344827070815</ele>
        <time>2019-10-18T13:29:06Z</time>
      </trkpt>
      <trkpt lat="46.59856" lon="-1.78129">
        <ele>30.344891912069</ele>
        <time>2019-10-18T13:29:13Z</time>
      </trkpt>
      <trkpt lat="46.5985" lon="-1.78119">
        <ele>32.344826424946</ele>
        <time>2019-10-18T13:29:21Z</time>
      </trkpt>
      <trkpt lat="46.59842" lon="-1.78123">
        <ele>32.344489537745</ele>
        <time>2019-10-18T13:29:28Z</time>
      </trkpt>
      <trkpt lat="46.59834" lon="-1.78128">
        <ele>32.344129555691</ele>
        <time>2019-10-18T13:29:35Z</time>
      </trkpt>
      <trkpt lat="46.59826" lon="-1.78131">
        <ele>32.343805606655</ele>
        <time>2019-10-18T13:29:42Z</time>
      </trkpt>
      <trkpt lat="46.59818" lon="-1.78136">
        <ele>31.343461973389</ele>
        <time>2019-10-18T13:29:49Z</time>
      </trkpt>
      <trkpt lat="46.59811" lon="-1.7814">
        <ele>31.343154901423</ele>
        <time>2019-10-18T13:29:55Z</time>
      </trkpt>
      <trkpt lat="46.59804" lon="-1.78143">
        <ele>31.342848590901</ele>
        <time>2019-10-18T13:30:01Z</time>
      </trkpt>
      <trkpt lat="46.59796" lon="-1.78148">
        <ele>33.34251170736</ele>
        <time>2019-10-18T13:30:07Z</time>
      </trkpt>
      <trkpt lat="46.59788" lon="-1.78152">
        <ele>35.342163001997</ele>
        <time>2019-10-18T13:30:14Z</time>
      </trkpt>
      <trkpt lat="46.5978" lon="-1.78157">
        <ele>34.341802088213</ele>
        <time>2019-10-18T13:30:22Z</time>
      </trkpt>
      <trkpt lat="46.59773" lon="-1.78161">
        <ele>32.341476815888</ele>
        <time>2019-10-18T13:30:28Z</time>
      </trkpt>
      <trkpt lat="46.59765" lon="-1.78165">
        <ele>31.341131274005</ele>
        <time>2019-10-18T13:30:36Z</time>
      </trkpt>
      <trkpt lat="46.59757" lon="-1.78169">
        <ele>31.340800918636</ele>
        <time>2019-10-18T13:30:43Z</time>
      </trkpt>
      <trkpt lat="46.59749" lon="-1.78173">
        <ele>30.340456108812</ele>
        <time>2019-10-18T13:30:50Z</time>
      </trkpt>
      <trkpt lat="46.5974" lon="-1.78176">
        <ele>30.340114292779</ele>
        <time>2019-10-18T13:30:57Z</time>
      </trkpt>
      <trkpt lat="46.59733" lon="-1.78179">
        <ele>30.339799017933</ele>
        <time>2019-10-18T13:31:03Z</time>
      </trkpt>
      <trkpt lat="46.59724" lon="-1.78182">
        <ele>29.33946727713</ele>
        <time>2019-10-18T13:31:09Z</time>
      </trkpt>
      <trkpt lat="46.59716" lon="-1.78185">
        <ele>30.33913997037</ele>
        <time>2019-10-18T13:31:16Z</time>
      </trkpt>
      <trkpt lat="46.59709" lon="-1.78189">
        <ele>30.338814544352</ele>
        <time>2019-10-18T13:31:23Z</time>
      </trkpt>
      <trkpt lat="46.59701" lon="-1.78193">
        <ele>30.338473750646</ele>
        <time>2019-10-18T13:31:30Z</time>
      </trkpt>
      <trkpt lat="46.59693" lon="-1.78195">
        <ele>30.338143674393</ele>
        <time>2019-10-18T13:31:37Z</time>
      </trkpt>
      <trkpt lat="46.59684" lon="-1.782">
        <ele>30.337789211016</ele>
        <time>2019-10-18T13:31:44Z</time>
      </trkpt>
      <trkpt lat="46.59677" lon="-1.78207">
        <ele>29.337416938702</ele>
        <time>2019-10-18T13:31:51Z</time>
      </trkpt>
      <trkpt lat="46.5967" lon="-1.78215">
        <ele>28.337059974704</ele>
        <time>2019-10-18T13:31:57Z</time>
      </trkpt>
      <trkpt lat="46.59666" lon="-1.78226">
        <ele>29.336758988093</ele>
        <time>2019-10-18T13:32:04Z</time>
      </trkpt>
      <trkpt lat="46.59662" lon="-1.78237">
        <ele>32.336435612263</ele>
        <time>2019-10-18T13:32:11Z</time>
      </trkpt>
      <trkpt lat="46.59654" lon="-1.78243">
        <ele>32.336081302104</ele>
        <time>2019-10-18T13:32:21Z</time>
      </trkpt>
      <trkpt lat="46.59646" lon="-1.78248">
        <ele>30.335720439802</ele>
        <time>2019-10-18T13:32:28Z</time>
      </trkpt>
      <trkpt lat="46.59638" lon="-1.78252">
        <ele>28.335377364611</ele>
        <time>2019-10-18T13:32:36Z</time>
      </trkpt>
      <trkpt lat="46.59631" lon="-1.78255">
        <ele>27.335069046745</ele>
        <time>2019-10-18T13:32:44Z</time>
      </trkpt>
      <trkpt lat="46.59623" lon="-1.78259">
        <ele>26.334734766937</ele>
        <time>2019-10-18T13:32:51Z</time>
      </trkpt>
      <trkpt lat="46.59615" lon="-1.78263">
        <ele>27.334405563381</ele>
        <time>2019-10-18T13:32:59Z</time>
      </trkpt>
      <trkpt lat="46.59607" lon="-1.78265">
        <ele>26.334088695739</ele>
        <time>2019-10-18T13:33:06Z</time>
      </trkpt>
      <trkpt lat="46.59598" lon="-1.78267">
        <ele>28.333764540265</ele>
        <time>2019-10-18T13:33:13Z</time>
      </trkpt>
      <trkpt lat="46.5959" lon="-1.78269">
        <ele>27.333432821229</ele>
        <time>2019-10-18T13:33:21Z</time>
      </trkpt>
      <trkpt lat="46.59581" lon="-1.78271">
        <ele>26.333099938491</ele>
        <time>2019-10-18T13:33:28Z</time>
      </trkpt>
      <trkpt lat="46.59572" lon="-1.78272">
        <ele>27.332785706823</ele>
        <time>2019-10-18T13:33:36Z</time>
      </trkpt>
      <trkpt lat="46.59564" lon="-1.78274">
        <ele>27.332469257328</ele>
        <time>2019-10-18T13:33:44Z</time>
      </trkpt>
      <trkpt lat="46.59556" lon="-1.78275">
        <ele>28.332162245245</ele>
        <time>2019-10-18T13:33:52Z</time>
      </trkpt>
      <trkpt lat="46.59548" lon="-1.78275">
        <ele>25.331875672482</ele>
        <time>2019-10-18T13:34:00Z</time>
      </trkpt>
      <trkpt lat="46.5954" lon="-1.78275">
        <ele>24.331601820184</ele>
        <time>2019-10-18T13:34:07Z</time>
      </trkpt>
      <trkpt lat="46.59531" lon="-1.78275">
        <ele>23.331300386093</ele>
        <time>2019-10-18T13:34:13Z</time>
      </trkpt>
      <trkpt lat="46.59523" lon="-1.78269">
        <ele>21.331111187847</ele>
        <time>2019-10-18T13:34:20Z</time>
      </trkpt>
      <trkpt lat="46.59515" lon="-1.78268">
        <ele>20.330842674997</ele>
        <time>2019-10-18T13:34:28Z</time>
      </trkpt>
      <trkpt lat="46.59507" lon="-1.78272">
        <ele>18.330497185167</ele>
        <time>2019-10-18T13:34:37Z</time>
      </trkpt>
      <trkpt lat="46.59498" lon="-1.78274">
        <ele>17.330161303946</ele>
        <time>2019-10-18T13:34:46Z</time>
      </trkpt>
      <trkpt lat="46.59489" lon="-1.78274">
        <ele>15.329862405642</ele>
        <time>2019-10-18T13:34:56Z</time>
      </trkpt>
      <trkpt lat="46.59481" lon="-1.78277">
        <ele>12.32952912517</ele>
        <time>2019-10-18T13:35:03Z</time>
      </trkpt>
      <trkpt lat="46.59473" lon="-1.7828">
        <ele>12.329204230295</ele>
        <time>2019-10-18T13:35:11Z</time>
      </trkpt>
      <trkpt lat="46.59465" lon="-1.78282">
        <ele>13.328900582204</ele>
        <time>2019-10-18T13:35:19Z</time>
      </trkpt>
      <trkpt lat="46.59457" lon="-1.78285">
        <ele>11.328570472058</ele>
        <time>2019-10-18T13:35:26Z</time>
      </trkpt>
      <trkpt lat="46.5945" lon="-1.78291">
        <ele>9.3282313510711</ele>
        <time>2019-10-18T13:35:34Z</time>
      </trkpt>
      <trkpt lat="46.59444" lon="-1.783">
        <ele>8.327897489949</ele>
        <time>2019-10-18T13:35:42Z</time>
      </trkpt>
      <trkpt lat="46.59438" lon="-1.78308">
        <ele>6.3275629468977</ele>
        <time>2019-10-18T13:35:50Z</time>
      </trkpt>
      <trkpt lat="46.59434" lon="-1.7832">
        <ele>-1.6727612264574</ele>
        <time>2019-10-18T13:36:27Z</time>
      </trkpt>
      <trkpt lat="46.59429" lon="-1.7833">
        <ele>-0.67307340720283</ele>
        <time>2019-10-18T13:37:19Z</time>
      </trkpt>
      <trkpt lat="46.59423" lon="-1.78339">
        <ele>0.32658390390944</ele>
        <time>2019-10-18T13:37:28Z</time>
      </trkpt>
      <trkpt lat="46.59417" lon="-1.78347">
        <ele>0.32623606911825</ele>
        <time>2019-10-18T13:37:34Z</time>
      </trkpt>
      <trkpt lat="46.59409" lon="-1.78353">
        <ele>1.3259015347976</ele>
        <time>2019-10-18T13:37:41Z</time>
      </trkpt>
      <trkpt lat="46.59403" lon="-1.78361">
        <ele>2.3255474718227</ele>
        <time>2019-10-18T13:37:49Z</time>
      </trkpt>
      <trkpt lat="46.59397" lon="-1.78369">
        <ele>1.3252134447766</ele>
        <time>2019-10-18T13:37:56Z</time>
      </trkpt>
      <trkpt lat="46.59391" lon="-1.78379">
        <ele>1.3248631801576</ele>
        <time>2019-10-18T13:38:03Z</time>
      </trkpt>
      <trkpt lat="46.59385" lon="-1.78387">
        <ele>2.3245484630018</ele>
        <time>2019-10-18T13:38:09Z</time>
      </trkpt>
      <trkpt lat="46.59379" lon="-1.78395">
        <ele>1.3242089511777</ele>
        <time>2019-10-18T13:38:16Z</time>
      </trkpt>
      <trkpt lat="46.59373" lon="-1.78403">
        <ele>1.3238901756603</ele>
        <time>2019-10-18T13:38:23Z</time>
      </trkpt>
      <trkpt lat="46.59367" lon="-1.78411">
        <ele>1.3235698377608</ele>
        <time>2019-10-18T13:38:30Z</time>
      </trkpt>
      <trkpt lat="46.59361" lon="-1.78419">
        <ele>0.32321344576476</ele>
        <time>2019-10-18T13:38:37Z</time>
      </trkpt>
      <trkpt lat="46.59354" lon="-1.78427">
        <ele>2.3228710294294</ele>
        <time>2019-10-18T13:38:44Z</time>
      </trkpt>
      <trkpt lat="46.59348" lon="-1.78436">
        <ele>0.3225270864077</ele>
        <time>2019-10-18T13:38:51Z</time>
      </trkpt>
      <trkpt lat="46.59344" lon="-1.78447">
        <ele>2.3222223169365</ele>
        <time>2019-10-18T13:38:59Z</time>
      </trkpt>
      <trkpt lat="46.59341" lon="-1.78458">
        <ele>6.3219535565156</ele>
        <time>2019-10-18T13:42:08Z</time>
      </trkpt>
      <trkpt lat="46.59345" lon="-1.78447">
        <ele>0.32226920292709</ele>
        <time>2019-10-18T13:47:17Z</time>
      </trkpt>
      <trkpt lat="46.5935" lon="-1.78437">
        <ele>1.3225995509165</ele>
        <time>2019-10-18T13:47:30Z</time>
      </trkpt>
      <trkpt lat="46.59356" lon="-1.78429">
        <ele>0.32292883162214</ele>
        <time>2019-10-18T13:47:38Z</time>
      </trkpt>
      <trkpt lat="46.59364" lon="-1.78421">
        <ele>2.3232912184494</ele>
        <time>2019-10-18T13:47:52Z</time>
      </trkpt>
      <trkpt lat="46.59369" lon="-1.78414">
        <ele>3.3235926561479</ele>
        <time>2019-10-18T13:47:59Z</time>
      </trkpt>
      <trkpt lat="46.59375" lon="-1.78405">
        <ele>3.3239253995165</ele>
        <time>2019-10-18T13:48:07Z</time>
      </trkpt>
      <trkpt lat="46.59381" lon="-1.78397">
        <ele>2.324255747742</ele>
        <time>2019-10-18T13:48:14Z</time>
      </trkpt>
      <trkpt lat="46.59388" lon="-1.78389">
        <ele>2.3246159563579</ele>
        <time>2019-10-18T13:48:21Z</time>
      </trkpt>
      <trkpt lat="46.59395" lon="-1.78382">
        <ele>1.3249553377857</ele>
        <time>2019-10-18T13:48:28Z</time>
      </trkpt>
      <trkpt lat="46.594" lon="-1.78372">
        <ele>0.32529563691381</ele>
        <time>2019-10-18T13:48:35Z</time>
      </trkpt>
      <trkpt lat="46.59407" lon="-1.78363">
        <ele>1.325655597365</ele>
        <time>2019-10-18T13:48:43Z</time>
      </trkpt>
      <trkpt lat="46.59412" lon="-1.78355">
        <ele>0.32597134664182</ele>
        <time>2019-10-18T13:48:52Z</time>
      </trkpt>
      <trkpt lat="46.59418" lon="-1.78346">
        <ele>0.32629961350675</ele>
        <time>2019-10-18T13:49:00Z</time>
      </trkpt>
      <trkpt lat="46.59423" lon="-1.78337">
        <ele>2.3266126430432</ele>
        <time>2019-10-18T13:49:08Z</time>
      </trkpt>
      <trkpt lat="46.59428" lon="-1.78327">
        <ele>2.3269233413602</ele>
        <time>2019-10-18T13:49:18Z</time>
      </trkpt>
      <trkpt lat="46.59434" lon="-1.78319">
        <ele>0.3272637378005</ele>
        <time>2019-10-18T13:49:28Z</time>
      </trkpt>
      <trkpt lat="46.59439" lon="-1.7831">
        <ele>3.3275762092643</ele>
        <time>2019-10-18T13:49:36Z</time>
      </trkpt>
      <trkpt lat="46.59446" lon="-1.78302">
        <ele>4.3279154377487</ele>
        <time>2019-10-18T13:49:48Z</time>
      </trkpt>
      <trkpt lat="46.59452" lon="-1.78294">
        <ele>7.3282626799972</ele>
        <time>2019-10-18T13:49:57Z</time>
      </trkpt>
      <trkpt lat="46.59459" lon="-1.78288">
        <ele>9.3285989161642</ele>
        <time>2019-10-18T13:50:06Z</time>
      </trkpt>
      <trkpt lat="46.59467" lon="-1.78284">
        <ele>12.328920862624</ele>
        <time>2019-10-18T13:50:20Z</time>
      </trkpt>
      <trkpt lat="46.59475" lon="-1.7828">
        <ele>12.329270499065</ele>
        <time>2019-10-18T13:50:30Z</time>
      </trkpt>
      <trkpt lat="46.59483" lon="-1.78277">
        <ele>15.329609733681</ele>
        <time>2019-10-18T13:50:43Z</time>
      </trkpt>
      <trkpt lat="46.59491" lon="-1.78278">
        <ele>17.329877415936</ele>
        <time>2019-10-18T13:50:53Z</time>
      </trkpt>
      <trkpt lat="46.595" lon="-1.78276">
        <ele>18.330213128491</ele>
        <time>2019-10-18T13:51:05Z</time>
      </trkpt>
      <trkpt lat="46.59509" lon="-1.78274">
        <ele>20.330537846201</ele>
        <time>2019-10-18T13:51:22Z</time>
      </trkpt>
      <trkpt lat="46.59516" lon="-1.78274">
        <ele>20.330803878815</ele>
        <time>2019-10-18T13:51:32Z</time>
      </trkpt>
      <trkpt lat="46.59525" lon="-1.78275">
        <ele>22.331075703436</ele>
        <time>2019-10-18T13:51:41Z</time>
      </trkpt>
      <trkpt lat="46.59533" lon="-1.78276">
        <ele>22.331369478797</ele>
        <time>2019-10-18T13:51:49Z</time>
      </trkpt>
      <trkpt lat="46.59542" lon="-1.78277">
        <ele>23.331647136336</ele>
        <time>2019-10-18T13:51:59Z</time>
      </trkpt>
      <trkpt lat="46.5955" lon="-1.78278">
        <ele>23.331915406925</ele>
        <time>2019-10-18T13:52:11Z</time>
      </trkpt>
      <trkpt lat="46.59559" lon="-1.78275">
        <ele>21.33224932529</ele>
        <time>2019-10-18T13:52:22Z</time>
      </trkpt>
      <trkpt lat="46.59567" lon="-1.78273">
        <ele>21.33257030788</ele>
        <time>2019-10-18T13:52:31Z</time>
      </trkpt>
      <trkpt lat="46.59576" lon="-1.78272">
        <ele>23.332885201257</ele>
        <time>2019-10-18T13:52:40Z</time>
      </trkpt>
      <trkpt lat="46.59584" lon="-1.78271">
        <ele>24.333205400108</ele>
        <time>2019-10-18T13:52:49Z</time>
      </trkpt>
      <trkpt lat="46.59592" lon="-1.78269">
        <ele>25.333520315519</ele>
        <time>2019-10-18T13:52:58Z</time>
      </trkpt>
      <trkpt lat="46.59601" lon="-1.78267">
        <ele>25.333852279117</ele>
        <time>2019-10-18T13:53:08Z</time>
      </trkpt>
      <trkpt lat="46.5961" lon="-1.78265">
        <ele>27.334195214243</ele>
        <time>2019-10-18T13:53:16Z</time>
      </trkpt>
      <trkpt lat="46.59619" lon="-1.78261">
        <ele>29.334549594165</ele>
        <time>2019-10-18T13:53:24Z</time>
      </trkpt>
      <trkpt lat="46.59626" lon="-1.78258">
        <ele>28.334870374571</ele>
        <time>2019-10-18T13:53:31Z</time>
      </trkpt>
      <trkpt lat="46.59634" lon="-1.78254">
        <ele>28.335208602197</ele>
        <time>2019-10-18T13:53:39Z</time>
      </trkpt>
      <trkpt lat="46.59642" lon="-1.78251">
        <ele>27.335526237464</ele>
        <time>2019-10-18T13:53:46Z</time>
      </trkpt>
      <trkpt lat="46.59651" lon="-1.78248">
        <ele>27.335872999312</ele>
        <time>2019-10-18T13:53:54Z</time>
      </trkpt>
      <trkpt lat="46.59658" lon="-1.78242">
        <ele>27.336206807195</ele>
        <time>2019-10-18T13:54:03Z</time>
      </trkpt>
      <trkpt lat="46.59666" lon="-1.78239">
        <ele>31.336530123003</ele>
        <time>2019-10-18T13:55:03Z</time>
      </trkpt>
      <trkpt lat="46.59669" lon="-1.78227">
        <ele>30.336825388483</ele>
        <time>2019-10-18T13:55:52Z</time>
      </trkpt>
      <trkpt lat="46.59674" lon="-1.78216">
        <ele>30.337161586188</ele>
        <time>2019-10-18T13:56:00Z</time>
      </trkpt>
      <trkpt lat="46.59679" lon="-1.78206">
        <ele>31.337507763713</ele>
        <time>2019-10-18T13:56:08Z</time>
      </trkpt>
      <trkpt lat="46.59687" lon="-1.782">
        <ele>30.337876106662</ele>
        <time>2019-10-18T13:56:16Z</time>
      </trkpt>
      <trkpt lat="46.59694" lon="-1.78197">
        <ele>30.338190633469</ele>
        <time>2019-10-18T13:56:25Z</time>
      </trkpt>
      <trkpt lat="46.59702" lon="-1.78193">
        <ele>30.338534420275</ele>
        <time>2019-10-18T13:56:34Z</time>
      </trkpt>
      <trkpt lat="46.59711" lon="-1.78189">
        <ele>31.33888140622</ele>
        <time>2019-10-18T13:56:41Z</time>
      </trkpt>
      <trkpt lat="46.59719" lon="-1.78186">
        <ele>32.339218368046</ele>
        <time>2019-10-18T13:56:49Z</time>
      </trkpt>
      <trkpt lat="46.59727" lon="-1.78183">
        <ele>30.339550936083</ele>
        <time>2019-10-18T13:56:55Z</time>
      </trkpt>
      <trkpt lat="46.59736" lon="-1.78179">
        <ele>30.339895995219</ele>
        <time>2019-10-18T13:57:04Z</time>
      </trkpt>
      <trkpt lat="46.59743" lon="-1.78177">
        <ele>29.340198537662</ele>
        <time>2019-10-18T13:57:11Z</time>
      </trkpt>
      <trkpt lat="46.59752" lon="-1.78173">
        <ele>29.340551922496</ele>
        <time>2019-10-18T13:57:18Z</time>
      </trkpt>
      <trkpt lat="46.59759" lon="-1.78169">
        <ele>31.340888561516</ele>
        <time>2019-10-18T13:57:25Z</time>
      </trkpt>
      <trkpt lat="46.59767" lon="-1.78164">
        <ele>32.341232637837</ele>
        <time>2019-10-18T13:57:32Z</time>
      </trkpt>
      <trkpt lat="46.59775" lon="-1.7816">
        <ele>32.341564187258</ele>
        <time>2019-10-18T13:57:39Z</time>
      </trkpt>
      <trkpt lat="46.59783" lon="-1.78157">
        <ele>31.341907208353</ele>
        <time>2019-10-18T13:57:47Z</time>
      </trkpt>
      <trkpt lat="46.59791" lon="-1.78153">
        <ele>32.342244101196</ele>
        <time>2019-10-18T13:57:54Z</time>
      </trkpt>
      <trkpt lat="46.59798" lon="-1.78148">
        <ele>31.342571683753</ele>
        <time>2019-10-18T13:58:01Z</time>
      </trkpt>
      <trkpt lat="46.59806" lon="-1.78143">
        <ele>31.342924556263</ele>
        <time>2019-10-18T13:58:09Z</time>
      </trkpt>
      <trkpt lat="46.59814" lon="-1.7814">
        <ele>31.343248517065</ele>
        <time>2019-10-18T13:58:16Z</time>
      </trkpt>
      <trkpt lat="46.59821" lon="-1.78135">
        <ele>32.343578139552</ele>
        <time>2019-10-18T13:58:25Z</time>
      </trkpt>
      <trkpt lat="46.59829" lon="-1.7813">
        <ele>32.343936894012</ele>
        <time>2019-10-18T13:58:32Z</time>
      </trkpt>
      <trkpt lat="46.59837" lon="-1.78126">
        <ele>33.34427385913</ele>
        <time>2019-10-18T13:58:39Z</time>
      </trkpt>
      <trkpt lat="46.59845" lon="-1.78123">
        <ele>32.344599690905</ele>
        <time>2019-10-18T13:58:46Z</time>
      </trkpt>
      <trkpt lat="46.59851" lon="-1.78114">
        <ele>33.344948857528</ele>
        <time>2019-10-18T13:58:56Z</time>
      </trkpt>
      <trkpt lat="46.59849" lon="-1.78102">
        <ele>31.345092341754</ele>
        <time>2019-10-18T13:59:03Z</time>
      </trkpt>
      <trkpt lat="46.59847" lon="-1.78091">
        <ele>30.345178654293</ele>
        <time>2019-10-18T13:59:11Z</time>
      </trkpt>
      <trkpt lat="46.59845" lon="-1.7808">
        <ele>30.345294966094</ele>
        <time>2019-10-18T13:59:18Z</time>
      </trkpt>
      <trkpt lat="46.59843" lon="-1.78067">
        <ele>31.345393818487</ele>
        <time>2019-10-18T13:59:26Z</time>
      </trkpt>
      <trkpt lat="46.59839" lon="-1.78056">
        <ele>31.345453792127</ele>
        <time>2019-10-18T13:59:33Z</time>
      </trkpt>
      <trkpt lat="46.59836" lon="-1.78045">
        <ele>30.34550433237</ele>
        <time>2019-10-18T13:59:41Z</time>
      </trkpt>
      <trkpt lat="46.59834" lon="-1.78033">
        <ele>30.345621004354</ele>
        <time>2019-10-18T13:59:49Z</time>
      </trkpt>
      <trkpt lat="46.59831" lon="-1.78022">
        <ele>29.345724284394</ele>
        <time>2019-10-18T13:59:56Z</time>
      </trkpt>
      <trkpt lat="46.59828" lon="-1.78011">
        <ele>28.345769545081</ele>
        <time>2019-10-18T14:00:03Z</time>
      </trkpt>
      <trkpt lat="46.59826" lon="-1.78">
        <ele>28.345886303353</ele>
        <time>2019-10-18T14:00:10Z</time>
      </trkpt>
      <trkpt lat="46.59825" lon="-1.77988">
        <ele>29.346015210917</ele>
        <time>2019-10-18T14:00:17Z</time>
      </trkpt>
      <trkpt lat="46.59821" lon="-1.77977">
        <ele>28.346073063375</ele>
        <time>2019-10-18T14:00:24Z</time>
      </trkpt>
      <trkpt lat="46.59818" lon="-1.77966">
        <ele>28.346137256112</ele>
        <time>2019-10-18T14:00:32Z</time>
      </trkpt>
      <trkpt lat="46.59815" lon="-1.77954">
        <ele>30.34620461294</ele>
        <time>2019-10-18T14:00:39Z</time>
      </trkpt>
      <trkpt lat="46.59808" lon="-1.77949">
        <ele>32.34604516419</ele>
        <time>2019-10-18T14:00:50Z</time>
      </trkpt>
      <trkpt lat="46.598" lon="-1.77953">
        <ele>33.345709723851</ele>
        <time>2019-10-18T14:00:58Z</time>
      </trkpt>
      <trkpt lat="46.59793" lon="-1.7796">
        <ele>31.345335595212</ele>
        <time>2019-10-18T14:01:06Z</time>
      </trkpt>
      <trkpt lat="46.59784" lon="-1.77963">
        <ele>32.344992000118</ele>
        <time>2019-10-18T14:01:15Z</time>
      </trkpt>
      <trkpt lat="46.59776" lon="-1.77966">
        <ele>31.344658859159</ele>
        <time>2019-10-18T14:01:22Z</time>
      </trkpt>
      <trkpt lat="46.59769" lon="-1.77972">
        <ele>30.34431159805</ele>
        <time>2019-10-18T14:01:29Z</time>
      </trkpt>
      <trkpt lat="46.59763" lon="-1.77979">
        <ele>30.343973109032</ele>
        <time>2019-10-18T14:01:36Z</time>
      </trkpt>
      <trkpt lat="46.59755" lon="-1.77984">
        <ele>30.343637467232</ele>
        <time>2019-10-18T14:01:42Z</time>
      </trkpt>
      <trkpt lat="46.59747" lon="-1.77988">
        <ele>28.343289888973</ele>
        <time>2019-10-18T14:01:49Z</time>
      </trkpt>
      <trkpt lat="46.5974" lon="-1.77993">
        <ele>28.342962583436</ele>
        <time>2019-10-18T14:01:56Z</time>
      </trkpt>
      <trkpt lat="46.59732" lon="-1.77999">
        <ele>29.342588683132</ele>
        <time>2019-10-18T14:02:03Z</time>
      </trkpt>
      <trkpt lat="46.59725" lon="-1.78001">
        <ele>28.342292431152</ele>
        <time>2019-10-18T14:02:09Z</time>
      </trkpt>
      <trkpt lat="46.59716" lon="-1.78004">
        <ele>26.341960402376</ele>
        <time>2019-10-18T14:02:15Z</time>
      </trkpt>
      <trkpt lat="46.59708" lon="-1.78001">
        <ele>25.341701646552</ele>
        <time>2019-10-18T14:02:23Z</time>
      </trkpt>
      <trkpt lat="46.597" lon="-1.78">
        <ele>25.341449785327</ele>
        <time>2019-10-18T14:02:30Z</time>
      </trkpt>
      <trkpt lat="46.59692" lon="-1.77999">
        <ele>26.341185429715</ele>
        <time>2019-10-18T14:02:36Z</time>
      </trkpt>
      <trkpt lat="46.59684" lon="-1.77996">
        <ele>25.340939055593</ele>
        <time>2019-10-18T14:02:43Z</time>
      </trkpt>
      <trkpt lat="46.59675" lon="-1.77994">
        <ele>25.340643141184</ele>
        <time>2019-10-18T14:02:51Z</time>
      </trkpt>
      <trkpt lat="46.59668" lon="-1.77991">
        <ele>25.340439847461</ele>
        <time>2019-10-18T14:02:57Z</time>
      </trkpt>
      <trkpt lat="46.5966" lon="-1.77988">
        <ele>24.340216852203</ele>
        <time>2019-10-18T14:03:03Z</time>
      </trkpt>
      <trkpt lat="46.59652" lon="-1.77986">
        <ele>24.339972913013</ele>
        <time>2019-10-18T14:03:09Z</time>
      </trkpt>
      <trkpt lat="46.59645" lon="-1.77983">
        <ele>25.339758320687</ele>
        <time>2019-10-18T14:03:15Z</time>
      </trkpt>
      <trkpt lat="46.59637" lon="-1.77978">
        <ele>23.339555423814</ele>
        <time>2019-10-18T14:03:22Z</time>
      </trkpt>
      <trkpt lat="46.59629" lon="-1.77973">
        <ele>22.339338948229</ele>
        <time>2019-10-18T14:03:31Z</time>
      </trkpt>
      <trkpt lat="46.59621" lon="-1.77969">
        <ele>22.339134006341</ele>
        <time>2019-10-18T14:03:38Z</time>
      </trkpt>
      <trkpt lat="46.59613" lon="-1.77966">
        <ele>22.338913571346</ele>
        <time>2019-10-18T14:03:44Z</time>
      </trkpt>
      <trkpt lat="46.59605" lon="-1.77962">
        <ele>21.33867196664</ele>
        <time>2019-10-18T14:03:50Z</time>
      </trkpt>
      <trkpt lat="46.59598" lon="-1.77954">
        <ele>22.338563636077</ele>
        <time>2019-10-18T14:03:59Z</time>
      </trkpt>
      <trkpt lat="46.59593" lon="-1.77946">
        <ele>20.338503244758</ele>
        <time>2019-10-18T14:04:06Z</time>
      </trkpt>
      <trkpt lat="46.59586" lon="-1.77939">
        <ele>21.338346428884</ele>
        <time>2019-10-18T14:04:13Z</time>
      </trkpt>
      <trkpt lat="46.5958" lon="-1.7793">
        <ele>19.338299723293</ele>
        <time>2019-10-18T14:04:21Z</time>
      </trkpt>
      <trkpt lat="46.59574" lon="-1.77921">
        <ele>18.338230236124</ele>
        <time>2019-10-18T14:04:28Z</time>
      </trkpt>
      <trkpt lat="46.5957" lon="-1.7791">
        <ele>16.338241633645</ele>
        <time>2019-10-18T14:04:35Z</time>
      </trkpt>
      <trkpt lat="46.59565" lon="-1.77899">
        <ele>14.338236555607</ele>
        <time>2019-10-18T14:04:43Z</time>
      </trkpt>
      <trkpt lat="46.59561" lon="-1.77889">
        <ele>14.338235219193</ele>
        <time>2019-10-18T14:04:51Z</time>
      </trkpt>
      <trkpt lat="46.59557" lon="-1.7788">
        <ele>13.338236860504</ele>
        <time>2019-10-18T14:04:59Z</time>
      </trkpt>
      <trkpt lat="46.59552" lon="-1.77869">
        <ele>13.338224084444</ele>
        <time>2019-10-18T14:05:06Z</time>
      </trkpt>
      <trkpt lat="46.59547" lon="-1.77859">
        <ele>12.338211448438</ele>
        <time>2019-10-18T14:05:13Z</time>
      </trkpt>
      <trkpt lat="46.59543" lon="-1.77849">
        <ele>12.338211411199</ele>
        <time>2019-10-18T14:05:21Z</time>
      </trkpt>
      <trkpt lat="46.59539" lon="-1.77838">
        <ele>11.338259804502</ele>
        <time>2019-10-18T14:05:29Z</time>
      </trkpt>
      <trkpt lat="46.59537" lon="-1.77827">
        <ele>10.338322160272</ele>
        <time>2019-10-18T14:05:35Z</time>
      </trkpt>
      <trkpt lat="46.59531" lon="-1.77818">
        <ele>9.3382698541105</ele>
        <time>2019-10-18T14:05:42Z</time>
      </trkpt>
      <trkpt lat="46.59527" lon="-1.77808">
        <ele>9.338286119111</ele>
        <time>2019-10-18T14:05:50Z</time>
      </trkpt>
      <trkpt lat="46.59524" lon="-1.77797">
        <ele>9.3383179159877</ele>
        <time>2019-10-18T14:05:57Z</time>
      </trkpt>
      <trkpt lat="46.59523" lon="-1.77785">
        <ele>10.338480490323</ele>
        <time>2019-10-18T14:06:04Z</time>
      </trkpt>
      <trkpt lat="46.59523" lon="-1.77773">
        <ele>9.3386684611862</ele>
        <time>2019-10-18T14:06:11Z</time>
      </trkpt>
      <trkpt lat="46.59526" lon="-1.77761">
        <ele>10.338963911718</ele>
        <time>2019-10-18T14:06:19Z</time>
      </trkpt>
      <trkpt lat="46.5953" lon="-1.7775">
        <ele>11.339254451145</ele>
        <time>2019-10-18T14:06:26Z</time>
      </trkpt>
      <trkpt lat="46.59534" lon="-1.77741">
        <ele>12.339558790516</ele>
        <time>2019-10-18T14:06:33Z</time>
      </trkpt>
      <trkpt lat="46.59539" lon="-1.7773">
        <ele>13.339884673695</ele>
        <time>2019-10-18T14:06:40Z</time>
      </trkpt>
      <trkpt lat="46.59544" lon="-1.7772">
        <ele>13.340224933842</ele>
        <time>2019-10-18T14:06:47Z</time>
      </trkpt>
      <trkpt lat="46.59549" lon="-1.7771">
        <ele>13.340547250228</ele>
        <time>2019-10-18T14:06:56Z</time>
      </trkpt>
      <trkpt lat="46.59554" lon="-1.77699">
        <ele>12.340883669585</ele>
        <time>2019-10-18T14:07:05Z</time>
      </trkpt>
      <trkpt lat="46.59559" lon="-1.77689">
        <ele>13.341239471715</ele>
        <time>2019-10-18T14:07:12Z</time>
      </trkpt>
      <trkpt lat="46.59563" lon="-1.77678">
        <ele>12.341556365423</ele>
        <time>2019-10-18T14:07:19Z</time>
      </trkpt>
      <trkpt lat="46.59567" lon="-1.77666">
        <ele>12.341861568692</ele>
        <time>2019-10-18T14:07:29Z</time>
      </trkpt>
      <trkpt lat="46.59569" lon="-1.77655">
        <ele>11.342103272655</ele>
        <time>2019-10-18T14:07:37Z</time>
      </trkpt>
      <trkpt lat="46.59569" lon="-1.77644">
        <ele>11.3422933674</ele>
        <time>2019-10-18T14:07:47Z</time>
      </trkpt>
      <trkpt lat="46.59572" lon="-1.77632">
        <ele>13.342583276725</ele>
        <time>2019-10-18T14:07:54Z</time>
      </trkpt>
      <trkpt lat="46.59575" lon="-1.77621">
        <ele>14.342842526503</ele>
        <time>2019-10-18T14:08:01Z</time>
      </trkpt>
      <trkpt lat="46.59579" lon="-1.7761">
        <ele>16.343154730051</ele>
        <time>2019-10-18T14:08:09Z</time>
      </trkpt>
      <trkpt lat="46.5958" lon="-1.77597">
        <ele>16.3433783846</ele>
        <time>2019-10-18T14:08:17Z</time>
      </trkpt>
      <trkpt lat="46.59582" lon="-1.77585">
        <ele>16.343646222424</ele>
        <time>2019-10-18T14:08:24Z</time>
      </trkpt>
      <trkpt lat="46.59584" lon="-1.77573">
        <ele>16.343890403777</ele>
        <time>2019-10-18T14:08:32Z</time>
      </trkpt>
      <trkpt lat="46.59585" lon="-1.77561">
        <ele>16.344132583545</ele>
        <time>2019-10-18T14:08:40Z</time>
      </trkpt>
      <trkpt lat="46.59589" lon="-1.77551">
        <ele>16.344431787197</ele>
        <time>2019-10-18T14:08:47Z</time>
      </trkpt>
      <trkpt lat="46.59591" lon="-1.77539">
        <ele>18.344679996433</ele>
        <time>2019-10-18T14:08:55Z</time>
      </trkpt>
      <trkpt lat="46.59591" lon="-1.77527">
        <ele>18.34486024055</ele>
        <time>2019-10-18T14:09:03Z</time>
      </trkpt>
      <trkpt lat="46.5959" lon="-1.77515">
        <ele>20.344994893466</ele>
        <time>2019-10-18T14:09:11Z</time>
      </trkpt>
      <trkpt lat="46.59591" lon="-1.77503">
        <ele>21.345221311803</ele>
        <time>2019-10-18T14:09:18Z</time>
      </trkpt>
      <trkpt lat="46.59589" lon="-1.77491">
        <ele>21.345334624042</ele>
        <time>2019-10-18T14:09:26Z</time>
      </trkpt>
      <trkpt lat="46.59588" lon="-1.77479">
        <ele>21.345483077367</ele>
        <time>2019-10-18T14:09:34Z</time>
      </trkpt>
      <trkpt lat="46.59587" lon="-1.77467">
        <ele>20.345648788599</ele>
        <time>2019-10-18T14:09:41Z</time>
      </trkpt>
      <trkpt lat="46.59586" lon="-1.77455">
        <ele>20.345804615896</ele>
        <time>2019-10-18T14:09:50Z</time>
      </trkpt>
      <trkpt lat="46.59586" lon="-1.77442">
        <ele>21.345962209431</ele>
        <time>2019-10-18T14:09:59Z</time>
      </trkpt>
      <trkpt lat="46.59583" lon="-1.77431">
        <ele>22.346040268924</ele>
        <time>2019-10-18T14:10:07Z</time>
      </trkpt>
      <trkpt lat="46.59582" lon="-1.77419">
        <ele>23.346182092586</ele>
        <time>2019-10-18T14:10:15Z</time>
      </trkpt>
      <trkpt lat="46.59581" lon="-1.77407">
        <ele>23.346353524873</ele>
        <time>2019-10-18T14:10:22Z</time>
      </trkpt>
      <trkpt lat="46.5958" lon="-1.77395">
        <ele>24.346490408155</ele>
        <time>2019-10-18T14:10:30Z</time>
      </trkpt>
      <trkpt lat="46.59579" lon="-1.77382">
        <ele>24.346665804559</ele>
        <time>2019-10-18T14:10:38Z</time>
      </trkpt>
      <trkpt lat="46.59579" lon="-1.77369">
        <ele>23.346863354355</ele>
        <time>2019-10-18T14:10:46Z</time>
      </trkpt>
      <trkpt lat="46.59579" lon="-1.77356">
        <ele>23.347049700101</ele>
        <time>2019-10-18T14:10:55Z</time>
      </trkpt>
      <trkpt lat="46.59578" lon="-1.77344">
        <ele>25.347199603411</ele>
        <time>2019-10-18T14:11:04Z</time>
      </trkpt>
      <trkpt lat="46.59581" lon="-1.77332">
        <ele>26.347470359681</ele>
        <time>2019-10-18T14:11:41Z</time>
      </trkpt>
      <trkpt lat="46.59582" lon="-1.77321">
        <ele>26.347710886174</ele>
        <time>2019-10-18T14:11:48Z</time>
      </trkpt>
      <trkpt lat="46.59577" lon="-1.77311">
        <ele>27.347673115482</ele>
        <time>2019-10-18T14:11:58Z</time>
      </trkpt>
      <trkpt lat="46.59575" lon="-1.773">
        <ele>27.347775586985</ele>
        <time>2019-10-18T14:12:06Z</time>
      </trkpt>
      <trkpt lat="46.59571" lon="-1.77289">
        <ele>26.347775295836</ele>
        <time>2019-10-18T14:12:13Z</time>
      </trkpt>
      <trkpt lat="46.59567" lon="-1.77279">
        <ele>24.347799540392</ele>
        <time>2019-10-18T14:12:21Z</time>
      </trkpt>
      <trkpt lat="46.59563" lon="-1.77268">
        <ele>24.347816226028</ele>
        <time>2019-10-18T14:12:28Z</time>
      </trkpt>
      <trkpt lat="46.59562" lon="-1.77255">
        <ele>24.347964239504</ele>
        <time>2019-10-18T14:12:38Z</time>
      </trkpt>
      <trkpt lat="46.5956" lon="-1.77245">
        <ele>23.348049031975</ele>
        <time>2019-10-18T14:12:44Z</time>
      </trkpt>
      <trkpt lat="46.59556" lon="-1.77233">
        <ele>23.348119541639</ele>
        <time>2019-10-18T14:12:52Z</time>
      </trkpt>
      <trkpt lat="46.59553" lon="-1.77222">
        <ele>23.348137269186</ele>
        <time>2019-10-18T14:12:59Z</time>
      </trkpt>
      <trkpt lat="46.59549" lon="-1.77211">
        <ele>21.348187410239</ele>
        <time>2019-10-18T14:13:08Z</time>
      </trkpt>
      <trkpt lat="46.59547" lon="-1.772">
        <ele>22.348267993676</ele>
        <time>2019-10-18T14:13:16Z</time>
      </trkpt>
      <trkpt lat="46.59546" lon="-1.77188">
        <ele>21.348403786686</ele>
        <time>2019-10-18T14:13:23Z</time>
      </trkpt>
      <trkpt lat="46.59543" lon="-1.77177">
        <ele>21.348479395972</ele>
        <time>2019-10-18T14:13:31Z</time>
      </trkpt>
      <trkpt lat="46.59538" lon="-1.77167">
        <ele>20.348455541069</ele>
        <time>2019-10-18T14:13:38Z</time>
      </trkpt>
      <trkpt lat="46.59534" lon="-1.77158">
        <ele>19.348448888268</ele>
        <time>2019-10-18T14:13:45Z</time>
      </trkpt>
      <trkpt lat="46.5953" lon="-1.77148">
        <ele>17.348456721463</ele>
        <time>2019-10-18T14:13:52Z</time>
      </trkpt>
      <trkpt lat="46.59526" lon="-1.77137">
        <ele>19.348476998766</ele>
        <time>2019-10-18T14:13:59Z</time>
      </trkpt>
      <trkpt lat="46.59523" lon="-1.77125">
        <ele>17.348524331152</ele>
        <time>2019-10-18T14:14:06Z</time>
      </trkpt>
      <trkpt lat="46.59519" lon="-1.77114">
        <ele>16.348562249472</ele>
        <time>2019-10-18T14:14:13Z</time>
      </trkpt>
      <trkpt lat="46.59517" lon="-1.77103">
        <ele>16.3486428544</ele>
        <time>2019-10-18T14:14:20Z</time>
      </trkpt>
      <trkpt lat="46.59513" lon="-1.77091">
        <ele>17.348677743187</ele>
        <time>2019-10-18T14:14:27Z</time>
      </trkpt>
      <trkpt lat="46.59511" lon="-1.77079">
        <ele>16.348813491406</ele>
        <time>2019-10-18T14:14:35Z</time>
      </trkpt>
      <trkpt lat="46.59508" lon="-1.77066">
        <ele>15.348899881094</ele>
        <time>2019-10-18T14:14:44Z</time>
      </trkpt>
      <trkpt lat="46.59506" lon="-1.77054">
        <ele>15.348999704734</ele>
        <time>2019-10-18T14:14:53Z</time>
      </trkpt>
      <trkpt lat="46.59503" lon="-1.77044">
        <ele>15.349037341326</ele>
        <time>2019-10-18T14:14:59Z</time>
      </trkpt>
      <trkpt lat="46.59501" lon="-1.77032">
        <ele>14.349129010984</ele>
        <time>2019-10-18T14:15:07Z</time>
      </trkpt>
      <trkpt lat="46.59496" lon="-1.77021">
        <ele>14.349123448191</ele>
        <time>2019-10-18T14:15:15Z</time>
      </trkpt>
      <trkpt lat="46.59494" lon="-1.77009">
        <ele>13.349224607125</ele>
        <time>2019-10-18T14:15:23Z</time>
      </trkpt>
      <trkpt lat="46.5949" lon="-1.76997">
        <ele>14.349277313457</ele>
        <time>2019-10-18T14:15:31Z</time>
      </trkpt>
      <trkpt lat="46.59486" lon="-1.76986">
        <ele>14.34929873229</ele>
        <time>2019-10-18T14:15:39Z</time>
      </trkpt>
      <trkpt lat="46.59483" lon="-1.76976">
        <ele>12.349347811942</ele>
        <time>2019-10-18T14:15:46Z</time>
      </trkpt>
      <trkpt lat="46.59479" lon="-1.76965">
        <ele>11.349355806519</ele>
        <time>2019-10-18T14:15:53Z</time>
      </trkpt>
      <trkpt lat="46.59476" lon="-1.76954">
        <ele>11.349402053767</ele>
        <time>2019-10-18T14:15:59Z</time>
      </trkpt>
      <trkpt lat="46.59471" lon="-1.76943">
        <ele>11.349390115649</ele>
        <time>2019-10-18T14:16:06Z</time>
      </trkpt>
      <trkpt lat="46.59465" lon="-1.76936">
        <ele>11.349268044729</ele>
        <time>2019-10-18T14:16:13Z</time>
      </trkpt>
      <trkpt lat="46.5946" lon="-1.76926">
        <ele>11.349231829975</ele>
        <time>2019-10-18T14:16:20Z</time>
      </trkpt>
      <trkpt lat="46.59453" lon="-1.76918">
        <ele>10.34909720313</ele>
        <time>2019-10-18T14:16:28Z</time>
      </trkpt>
      <trkpt lat="46.59447" lon="-1.76908">
        <ele>11.349038482453</ele>
        <time>2019-10-18T14:16:36Z</time>
      </trkpt>
      <trkpt lat="46.59443" lon="-1.76898">
        <ele>10.349026802653</ele>
        <time>2019-10-18T14:16:43Z</time>
      </trkpt>
      <trkpt lat="46.59436" lon="-1.76889">
        <ele>11.348941795706</ele>
        <time>2019-10-18T14:16:50Z</time>
      </trkpt>
      <trkpt lat="46.59432" lon="-1.7688">
        <ele>10.348893541</ele>
        <time>2019-10-18T14:16:56Z</time>
      </trkpt>
      <trkpt lat="46.59427" lon="-1.76871">
        <ele>12.348848257632</ele>
        <time>2019-10-18T14:17:03Z</time>
      </trkpt>
      <trkpt lat="46.59422" lon="-1.7686">
        <ele>14.348844249557</ele>
        <time>2019-10-18T14:17:10Z</time>
      </trkpt>
      <trkpt lat="46.59418" lon="-1.76849">
        <ele>14.348864436163</ele>
        <time>2019-10-18T14:17:17Z</time>
      </trkpt>
      <trkpt lat="46.59415" lon="-1.76838">
        <ele>15.348896879308</ele>
        <time>2019-10-18T14:17:24Z</time>
      </trkpt>
      <trkpt lat="46.59411" lon="-1.76826">
        <ele>13.348926902605</ele>
        <time>2019-10-18T14:17:32Z</time>
      </trkpt>
      <trkpt lat="46.59409" lon="-1.76814">
        <ele>13.349035210325</ele>
        <time>2019-10-18T14:17:40Z</time>
      </trkpt>
      <trkpt lat="46.59405" lon="-1.76802">
        <ele>12.349092771137</ele>
        <time>2019-10-18T14:17:48Z</time>
      </trkpt>
      <trkpt lat="46.59401" lon="-1.76791">
        <ele>12.349111262069</ele>
        <time>2019-10-18T14:17:56Z</time>
      </trkpt>
      <trkpt lat="46.59401" lon="-1.7678">
        <ele>10.349287080883</ele>
        <time>2019-10-18T14:18:02Z</time>
      </trkpt>
      <trkpt lat="46.59402" lon="-1.76768">
        <ele>8.3494994115224</ele>
        <time>2019-10-18T14:18:09Z</time>
      </trkpt>
      <trkpt lat="46.59401" lon="-1.76756">
        <ele>7.3496424423862</ele>
        <time>2019-10-18T14:18:16Z</time>
      </trkpt>
      <trkpt lat="46.59403" lon="-1.76745">
        <ele>7.3498587864653</ele>
        <time>2019-10-18T14:18:22Z</time>
      </trkpt>
      <trkpt lat="46.59403" lon="-1.76732">
        <ele>6.3500502490145</ele>
        <time>2019-10-18T14:18:30Z</time>
      </trkpt>
      <trkpt lat="46.59403" lon="-1.7672">
        <ele>7.3502305958461</ele>
        <time>2019-10-18T14:18:37Z</time>
      </trkpt>
      <trkpt lat="46.59404" lon="-1.76709">
        <ele>4.3504422488477</ele>
        <time>2019-10-18T14:18:44Z</time>
      </trkpt>
      <trkpt lat="46.59406" lon="-1.76696">
        <ele>4.3507010335728</ele>
        <time>2019-10-18T14:18:52Z</time>
      </trkpt>
      <trkpt lat="46.59405" lon="-1.76685">
        <ele>5.3508425544125</ele>
        <time>2019-10-18T14:18:59Z</time>
      </trkpt>
      <trkpt lat="46.59404" lon="-1.76674">
        <ele>5.3509613386125</ele>
        <time>2019-10-18T14:19:06Z</time>
      </trkpt>
      <trkpt lat="46.594" lon="-1.76662">
        <ele>6.351015259082</ele>
        <time>2019-10-18T14:19:14Z</time>
      </trkpt>
      <trkpt lat="46.59396" lon="-1.76652">
        <ele>6.3510150192211</ele>
        <time>2019-10-18T14:19:21Z</time>
      </trkpt>
      <trkpt lat="46.59391" lon="-1.76643">
        <ele>8.3509715859494</ele>
        <time>2019-10-18T14:19:29Z</time>
      </trkpt>
      <trkpt lat="46.59385" lon="-1.76634">
        <ele>9.3508857325322</ele>
        <time>2019-10-18T14:19:36Z</time>
      </trkpt>
      <trkpt lat="46.59379" lon="-1.76626">
        <ele>10.350752989193</ele>
        <time>2019-10-18T14:19:43Z</time>
      </trkpt>
      <trkpt lat="46.59374" lon="-1.76616">
        <ele>11.35071172063</ele>
        <time>2019-10-18T14:19:51Z</time>
      </trkpt>
      <trkpt lat="46.59369" lon="-1.76606">
        <ele>12.350682681422</ele>
        <time>2019-10-18T14:20:00Z</time>
      </trkpt>
      <trkpt lat="46.59363" lon="-1.76597">
        <ele>11.350611427193</ele>
        <time>2019-10-18T14:20:07Z</time>
      </trkpt>
      <trkpt lat="46.59357" lon="-1.76588">
        <ele>12.350524086732</ele>
        <time>2019-10-18T14:20:15Z</time>
      </trkpt>
      <trkpt lat="46.59351" lon="-1.76579">
        <ele>12.350428719259</ele>
        <time>2019-10-18T14:20:24Z</time>
      </trkpt>
      <trkpt lat="46.59346" lon="-1.76569">
        <ele>12.350362200607</ele>
        <time>2019-10-18T14:20:32Z</time>
      </trkpt>
      <trkpt lat="46.59342" lon="-1.76559">
        <ele>14.350369976502</ele>
        <time>2019-10-18T14:20:40Z</time>
      </trkpt>
      <trkpt lat="46.59337" lon="-1.76549">
        <ele>14.350327018534</ele>
        <time>2019-10-18T14:20:47Z</time>
      </trkpt>
      <trkpt lat="46.59332" lon="-1.76539">
        <ele>14.350297967035</ele>
        <time>2019-10-18T14:20:55Z</time>
      </trkpt>
      <trkpt lat="46.59327" lon="-1.76529">
        <ele>14.350264036359</ele>
        <time>2019-10-18T14:21:03Z</time>
      </trkpt>
      <trkpt lat="46.59321" lon="-1.76522">
        <ele>14.35013706147</ele>
        <time>2019-10-18T14:21:10Z</time>
      </trkpt>
      <trkpt lat="46.59314" lon="-1.76514">
        <ele>14.349988350556</ele>
        <time>2019-10-18T14:21:17Z</time>
      </trkpt>
      <trkpt lat="46.59308" lon="-1.76504">
        <ele>13.349926662922</ele>
        <time>2019-10-18T14:21:25Z</time>
      </trkpt>
      <trkpt lat="46.59304" lon="-1.76494">
        <ele>14.349915726888</ele>
        <time>2019-10-18T14:21:32Z</time>
      </trkpt>
      <trkpt lat="46.59299" lon="-1.76484">
        <ele>15.349873198015</ele>
        <time>2019-10-18T14:21:41Z</time>
      </trkpt>
      <trkpt lat="46.59294" lon="-1.76476">
        <ele>14.349801873572</ele>
        <time>2019-10-18T14:21:47Z</time>
      </trkpt>
      <trkpt lat="46.5929" lon="-1.76465">
        <ele>14.349810860811</ele>
        <time>2019-10-18T14:21:54Z</time>
      </trkpt>
      <trkpt lat="46.59284" lon="-1.76457">
        <ele>14.349710321878</ele>
        <time>2019-10-18T14:22:01Z</time>
      </trkpt>
      <trkpt lat="46.59278" lon="-1.76449">
        <ele>13.349611187458</ele>
        <time>2019-10-18T14:22:09Z</time>
      </trkpt>
      <trkpt lat="46.59271" lon="-1.76443">
        <ele>12.349414242142</ele>
        <time>2019-10-18T14:22:16Z</time>
      </trkpt>
      <trkpt lat="46.59263" lon="-1.76436">
        <ele>10.34925357037</ele>
        <time>2019-10-18T14:22:23Z</time>
      </trkpt>
      <trkpt lat="46.59257" lon="-1.76427">
        <ele>12.349129668791</ele>
        <time>2019-10-18T14:22:30Z</time>
      </trkpt>
      <trkpt lat="46.5925" lon="-1.76419">
        <ele>12.349000842894</ele>
        <time>2019-10-18T14:22:37Z</time>
      </trkpt>
      <trkpt lat="46.59243" lon="-1.76413">
        <ele>14.348835401284</ele>
        <time>2019-10-18T14:22:53Z</time>
      </trkpt>
      <trkpt lat="46.59237" lon="-1.76406">
        <ele>13.348680833652</ele>
        <time>2019-10-18T14:23:00Z</time>
      </trkpt>
      <trkpt lat="46.5923" lon="-1.76397">
        <ele>13.348587661128</ele>
        <time>2019-10-18T14:23:08Z</time>
      </trkpt>
      <trkpt lat="46.59224" lon="-1.76388">
        <ele>14.348486497432</ele>
        <time>2019-10-18T14:23:14Z</time>
      </trkpt>
      <trkpt lat="46.59218" lon="-1.76379">
        <ele>13.348384272772</ele>
        <time>2019-10-18T14:23:22Z</time>
      </trkpt>
      <trkpt lat="46.59211" lon="-1.76372">
        <ele>10.348224994062</ele>
        <time>2019-10-18T14:23:30Z</time>
      </trkpt>
      <trkpt lat="46.59204" lon="-1.76364">
        <ele>11.348086158132</ele>
        <time>2019-10-18T14:23:37Z</time>
      </trkpt>
      <trkpt lat="46.59197" lon="-1.76356">
        <ele>12.34794921723</ele>
        <time>2019-10-18T14:23:44Z</time>
      </trkpt>
      <trkpt lat="46.59191" lon="-1.76348">
        <ele>13.347807194903</ele>
        <time>2019-10-18T14:23:51Z</time>
      </trkpt>
      <trkpt lat="46.59185" lon="-1.76341">
        <ele>12.347681914017</ele>
        <time>2019-10-18T14:23:58Z</time>
      </trkpt>
      <trkpt lat="46.59178" lon="-1.76334">
        <ele>13.347512829351</ele>
        <time>2019-10-18T14:24:06Z</time>
      </trkpt>
      <trkpt lat="46.59171" lon="-1.76327">
        <ele>13.347369799234</ele>
        <time>2019-10-18T14:24:13Z</time>
      </trkpt>
      <trkpt lat="46.59163" lon="-1.7632">
        <ele>14.347170696857</ele>
        <time>2019-10-18T14:24:20Z</time>
      </trkpt>
      <trkpt lat="46.59156" lon="-1.76314">
        <ele>14.347011481515</ele>
        <time>2019-10-18T14:24:26Z</time>
      </trkpt>
      <trkpt lat="46.5915" lon="-1.76307">
        <ele>14.346879768656</ele>
        <time>2019-10-18T14:24:32Z</time>
      </trkpt>
      <trkpt lat="46.59143" lon="-1.763">
        <ele>14.346715542353</ele>
        <time>2019-10-18T14:24:38Z</time>
      </trkpt>
      <trkpt lat="46.59138" lon="-1.7629">
        <ele>14.346644287614</ele>
        <time>2019-10-18T14:24:46Z</time>
      </trkpt>
      <trkpt lat="46.59132" lon="-1.7628">
        <ele>12.3465695365</ele>
        <time>2019-10-18T14:24:53Z</time>
      </trkpt>
      <trkpt lat="46.59126" lon="-1.76273">
        <ele>13.346434030671</ele>
        <time>2019-10-18T14:24:59Z</time>
      </trkpt>
      <trkpt lat="46.5912" lon="-1.76264">
        <ele>12.346362049997</ele>
        <time>2019-10-18T14:25:06Z</time>
      </trkpt>
      <trkpt lat="46.59114" lon="-1.76255">
        <ele>12.346262524911</ele>
        <time>2019-10-18T14:25:13Z</time>
      </trkpt>
      <trkpt lat="46.59108" lon="-1.76247">
        <ele>12.346128391269</ele>
        <time>2019-10-18T14:25:21Z</time>
      </trkpt>
      <trkpt lat="46.59101" lon="-1.76239">
        <ele>13.34600015132</ele>
        <time>2019-10-18T14:25:29Z</time>
      </trkpt>
      <trkpt lat="46.59095" lon="-1.7623">
        <ele>14.345894493886</ele>
        <time>2019-10-18T14:25:37Z</time>
      </trkpt>
      <trkpt lat="46.59088" lon="-1.76223">
        <ele>14.345746730833</ele>
        <time>2019-10-18T14:25:44Z</time>
      </trkpt>
      <trkpt lat="46.59083" lon="-1.76215">
        <ele>15.34564616184</ele>
        <time>2019-10-18T14:25:50Z</time>
      </trkpt>
      <trkpt lat="46.59076" lon="-1.76208">
        <ele>14.345508369016</ele>
        <time>2019-10-18T14:25:57Z</time>
      </trkpt>
      <trkpt lat="46.5907" lon="-1.762">
        <ele>13.345378815908</ele>
        <time>2019-10-18T14:26:05Z</time>
      </trkpt>
      <trkpt lat="46.59062" lon="-1.76193">
        <ele>12.345185253546</ele>
        <time>2019-10-18T14:26:16Z</time>
      </trkpt>
      <trkpt lat="46.59056" lon="-1.76184">
        <ele>12.345102372935</ele>
        <time>2019-10-18T14:26:25Z</time>
      </trkpt>
      <trkpt lat="46.5905" lon="-1.76175">
        <ele>12.344992316589</ele>
        <time>2019-10-18T14:26:33Z</time>
      </trkpt>
      <trkpt lat="46.59044" lon="-1.76166">
        <ele>13.344866146852</ele>
        <time>2019-10-18T14:26:41Z</time>
      </trkpt>
      <trkpt lat="46.59039" lon="-1.76157">
        <ele>13.344801713422</ele>
        <time>2019-10-18T14:26:48Z</time>
      </trkpt>
      <trkpt lat="46.59032" lon="-1.76148">
        <ele>14.344706502097</ele>
        <time>2019-10-18T14:26:55Z</time>
      </trkpt>
      <trkpt lat="46.59027" lon="-1.7614">
        <ele>14.344607394576</ele>
        <time>2019-10-18T14:27:02Z</time>
      </trkpt>
      <trkpt lat="46.59021" lon="-1.76131">
        <ele>14.344526001329</ele>
        <time>2019-10-18T14:27:10Z</time>
      </trkpt>
      <trkpt lat="46.59015" lon="-1.76122">
        <ele>14.344397957039</ele>
        <time>2019-10-18T14:27:19Z</time>
      </trkpt>
      <trkpt lat="46.59009" lon="-1.76114">
        <ele>13.344285216432</ele>
        <time>2019-10-18T14:27:26Z</time>
      </trkpt>
      <trkpt lat="46.59003" lon="-1.76104">
        <ele>15.344197659567</ele>
        <time>2019-10-18T14:27:34Z</time>
      </trkpt>
      <trkpt lat="46.58997" lon="-1.76094">
        <ele>14.344121483762</ele>
        <time>2019-10-18T14:27:42Z</time>
      </trkpt>
      <trkpt lat="46.58991" lon="-1.76086">
        <ele>15.344012523898</ele>
        <time>2019-10-18T14:27:49Z</time>
      </trkpt>
      <trkpt lat="46.58985" lon="-1.76076">
        <ele>16.343923978948</ele>
        <time>2019-10-18T14:27:56Z</time>
      </trkpt>
      <trkpt lat="46.58979" lon="-1.76067">
        <ele>15.343835945585</ele>
        <time>2019-10-18T14:28:05Z</time>
      </trkpt>
      <trkpt lat="46.58975" lon="-1.76057">
        <ele>16.343827604009</ele>
        <time>2019-10-18T14:28:12Z</time>
      </trkpt>
      <trkpt lat="46.58971" lon="-1.76048">
        <ele>17.343783612788</ele>
        <time>2019-10-18T14:28:18Z</time>
      </trkpt>
      <trkpt lat="46.58967" lon="-1.76037">
        <ele>18.34378558792</ele>
        <time>2019-10-18T14:28:25Z</time>
      </trkpt>
      <trkpt lat="46.58961" lon="-1.76026">
        <ele>16.343744311606</ele>
        <time>2019-10-18T14:28:40Z</time>
      </trkpt>
      <trkpt lat="46.58962" lon="-1.76014">
        <ele>18.343938385371</ele>
        <time>2019-10-18T14:30:04Z</time>
      </trkpt>
      <trkpt lat="46.58969" lon="-1.76008">
        <ele>17.344301601455</ele>
        <time>2019-10-18T14:30:13Z</time>
      </trkpt>
      <trkpt lat="46.58977" lon="-1.76005">
        <ele>19.344637590102</ele>
        <time>2019-10-18T14:30:20Z</time>
      </trkpt>
      <trkpt lat="46.58984" lon="-1.75998">
        <ele>19.345027655159</ele>
        <time>2019-10-18T14:30:28Z</time>
      </trkpt>
      <trkpt lat="46.58992" lon="-1.75993">
        <ele>19.345397159021</ele>
        <time>2019-10-18T14:30:37Z</time>
      </trkpt>
      <trkpt lat="46.58999" lon="-1.75988">
        <ele>20.345746132652</ele>
        <time>2019-10-18T14:30:44Z</time>
      </trkpt>
      <trkpt lat="46.59008" lon="-1.75983">
        <ele>21.346131261241</ele>
        <time>2019-10-18T14:30:51Z</time>
      </trkpt>
      <trkpt lat="46.59016" lon="-1.7598">
        <ele>21.346502236021</ele>
        <time>2019-10-18T14:31:00Z</time>
      </trkpt>
      <trkpt lat="46.59024" lon="-1.75974">
        <ele>24.346881100399</ele>
        <time>2019-10-18T14:31:10Z</time>
      </trkpt>
      <trkpt lat="46.59031" lon="-1.75969">
        <ele>23.34723225697</ele>
        <time>2019-10-18T14:31:18Z</time>
      </trkpt>
      <trkpt lat="46.59038" lon="-1.75965">
        <ele>22.347568849352</ele>
        <time>2019-10-18T14:31:25Z</time>
      </trkpt>
      <trkpt lat="46.59046" lon="-1.75961">
        <ele>23.347930389069</ele>
        <time>2019-10-18T14:31:32Z</time>
      </trkpt>
      <trkpt lat="46.59054" lon="-1.75955">
        <ele>24.348311432447</ele>
        <time>2019-10-18T14:31:42Z</time>
      </trkpt>
      <trkpt lat="46.59061" lon="-1.7595">
        <ele>24.348682963828</ele>
        <time>2019-10-18T14:31:50Z</time>
      </trkpt>
      <trkpt lat="46.59069" lon="-1.75945">
        <ele>25.349036698645</ele>
        <time>2019-10-18T14:31:58Z</time>
      </trkpt>
      <trkpt lat="46.59077" lon="-1.75941">
        <ele>25.349402069938</ele>
        <time>2019-10-18T14:32:07Z</time>
      </trkpt>
      <trkpt lat="46.59084" lon="-1.75935">
        <ele>25.349769526976</ele>
        <time>2019-10-18T14:32:15Z</time>
      </trkpt>
      <trkpt lat="46.59091" lon="-1.75931">
        <ele>25.350115004563</ele>
        <time>2019-10-18T14:32:23Z</time>
      </trkpt>
      <trkpt lat="46.59099" lon="-1.75926">
        <ele>25.350498070222</ele>
        <time>2019-10-18T14:32:32Z</time>
      </trkpt>
      <trkpt lat="46.59107" lon="-1.75922">
        <ele>26.350854824696</ele>
        <time>2019-10-18T14:32:39Z</time>
      </trkpt>
      <trkpt lat="46.59115" lon="-1.75917">
        <ele>26.351224169171</ele>
        <time>2019-10-18T14:32:47Z</time>
      </trkpt>
      <trkpt lat="46.59123" lon="-1.75913">
        <ele>26.351607534063</ele>
        <time>2019-10-18T14:32:55Z</time>
      </trkpt>
      <trkpt lat="46.5913" lon="-1.75906">
        <ele>25.351969329451</ele>
        <time>2019-10-18T14:33:03Z</time>
      </trkpt>
      <trkpt lat="46.59129" lon="-1.75894">
        <ele>24.352092569485</ele>
        <time>2019-10-18T14:33:11Z</time>
      </trkpt>
      <trkpt lat="46.59125" lon="-1.75883">
        <ele>23.352113003492</ele>
        <time>2019-10-18T14:33:19Z</time>
      </trkpt>
      <trkpt lat="46.59121" lon="-1.75871">
        <ele>24.352120445318</ele>
        <time>2019-10-18T14:33:27Z</time>
      </trkpt>
      <trkpt lat="46.59118" lon="-1.75861">
        <ele>25.352145578379</ele>
        <time>2019-10-18T14:33:34Z</time>
      </trkpt>
      <trkpt lat="46.59114" lon="-1.75849">
        <ele>25.352172431497</ele>
        <time>2019-10-18T14:33:42Z</time>
      </trkpt>
      <trkpt lat="46.5911" lon="-1.75838">
        <ele>26.352200859867</ele>
        <time>2019-10-18T14:33:50Z</time>
      </trkpt>
      <trkpt lat="46.59106" lon="-1.75827">
        <ele>27.352187198111</ele>
        <time>2019-10-18T14:33:59Z</time>
      </trkpt>
      <trkpt lat="46.59101" lon="-1.75816">
        <ele>27.352178810313</ele>
        <time>2019-10-18T14:34:07Z</time>
      </trkpt>
      <trkpt lat="46.59097" lon="-1.75804">
        <ele>30.352171284843</ele>
        <time>2019-10-18T14:34:15Z</time>
      </trkpt>
      <trkpt lat="46.59093" lon="-1.75794">
        <ele>30.352179922066</ele>
        <time>2019-10-18T14:34:22Z</time>
      </trkpt>
      <trkpt lat="46.5909" lon="-1.75783">
        <ele>29.35220242268</ele>
        <time>2019-10-18T14:34:29Z</time>
      </trkpt>
      <trkpt lat="46.59086" lon="-1.75772">
        <ele>30.352203146273</ele>
        <time>2019-10-18T14:34:36Z</time>
      </trkpt>
      <trkpt lat="46.59082" lon="-1.75761">
        <ele>30.352234323165</ele>
        <time>2019-10-18T14:34:43Z</time>
      </trkpt>
      <trkpt lat="46.59079" lon="-1.7575">
        <ele>29.352267893167</ele>
        <time>2019-10-18T14:34:51Z</time>
      </trkpt>
      <trkpt lat="46.59076" lon="-1.75738">
        <ele>29.352343626548</ele>
        <time>2019-10-18T14:34:59Z</time>
      </trkpt>
      <trkpt lat="46.59073" lon="-1.75728">
        <ele>30.352351876229</ele>
        <time>2019-10-18T14:35:07Z</time>
      </trkpt>
      <trkpt lat="46.5907" lon="-1.75717">
        <ele>29.352398062759</ele>
        <time>2019-10-18T14:35:13Z</time>
      </trkpt>
      <trkpt lat="46.59067" lon="-1.75704">
        <ele>30.352476562385</ele>
        <time>2019-10-18T14:35:21Z</time>
      </trkpt>
      <trkpt lat="46.59064" lon="-1.75693">
        <ele>31.352486996711</ele>
        <time>2019-10-18T14:35:28Z</time>
      </trkpt>
      <trkpt lat="46.59061" lon="-1.75681">
        <ele>32.352579440585</ele>
        <time>2019-10-18T14:35:35Z</time>
      </trkpt>
      <trkpt lat="46.59057" lon="-1.75671">
        <ele>31.352552315059</ele>
        <time>2019-10-18T14:35:43Z</time>
      </trkpt>
      <trkpt lat="46.59049" lon="-1.75666">
        <ele>30.352301043768</ele>
        <time>2019-10-18T14:35:50Z</time>
      </trkpt>
      <trkpt lat="46.59041" lon="-1.75668">
        <ele>30.351958854339</ele>
        <time>2019-10-18T14:35:57Z</time>
      </trkpt>
      <trkpt lat="46.59033" lon="-1.75673">
        <ele>29.351567791664</ele>
        <time>2019-10-18T14:36:05Z</time>
      </trkpt>
      <trkpt lat="46.59024" lon="-1.75678">
        <ele>29.351175318947</ele>
        <time>2019-10-18T14:36:12Z</time>
      </trkpt>
      <trkpt lat="46.59016" lon="-1.75682">
        <ele>28.350788682968</ele>
        <time>2019-10-18T14:36:19Z</time>
      </trkpt>
      <trkpt lat="46.59008" lon="-1.75686">
        <ele>28.350434441277</ele>
        <time>2019-10-18T14:36:26Z</time>
      </trkpt>
      <trkpt lat="46.59" lon="-1.75692">
        <ele>28.350041960887</ele>
        <time>2019-10-18T14:36:33Z</time>
      </trkpt>
      <trkpt lat="46.58992" lon="-1.75696">
        <ele>28.34969033828</ele>
        <time>2019-10-18T14:36:39Z</time>
      </trkpt>
      <trkpt lat="46.58984" lon="-1.75699">
        <ele>27.349318499505</ele>
        <time>2019-10-18T14:36:47Z</time>
      </trkpt>
      <trkpt lat="46.58977" lon="-1.75703">
        <ele>26.348964396266</ele>
        <time>2019-10-18T14:36:54Z</time>
      </trkpt>
      <trkpt lat="46.58969" lon="-1.75705">
        <ele>26.34862171517</ele>
        <time>2019-10-18T14:37:02Z</time>
      </trkpt>
      <trkpt lat="46.5896" lon="-1.75701">
        <ele>25.348367048128</ele>
        <time>2019-10-18T14:37:10Z</time>
      </trkpt>
      <trkpt lat="46.58957" lon="-1.75689">
        <ele>24.348404893652</ele>
        <time>2019-10-18T14:37:19Z</time>
      </trkpt>
      <trkpt lat="46.58956" lon="-1.75677">
        <ele>25.348545271042</ele>
        <time>2019-10-18T14:37:26Z</time>
      </trkpt>
      <trkpt lat="46.58955" lon="-1.75665">
        <ele>25.348653290235</ele>
        <time>2019-10-18T14:37:35Z</time>
      </trkpt>
      <trkpt lat="46.58953" lon="-1.75654">
        <ele>25.348771649236</ele>
        <time>2019-10-18T14:37:42Z</time>
      </trkpt>
      <trkpt lat="46.58952" lon="-1.75641">
        <ele>26.348915392254</ele>
        <time>2019-10-18T14:37:48Z</time>
      </trkpt>
      <trkpt lat="46.5895" lon="-1.75628">
        <ele>24.349011679755</ele>
        <time>2019-10-18T14:38:06Z</time>
      </trkpt>
      <trkpt lat="46.58949" lon="-1.75616">
        <ele>24.349150672898</ele>
        <time>2019-10-18T14:38:13Z</time>
      </trkpt>
      <trkpt lat="46.58947" lon="-1.75605">
        <ele>24.349212867085</ele>
        <time>2019-10-18T14:38:18Z</time>
      </trkpt>
      <trkpt lat="46.58944" lon="-1.75594">
        <ele>23.349260991297</ele>
        <time>2019-10-18T14:38:25Z</time>
      </trkpt>
      <trkpt lat="46.5894" lon="-1.75584">
        <ele>22.349264120971</ele>
        <time>2019-10-18T14:38:32Z</time>
      </trkpt>
      <trkpt lat="46.58936" lon="-1.75573">
        <ele>21.349240188433</ele>
        <time>2019-10-18T14:38:39Z</time>
      </trkpt>
      <trkpt lat="46.58932" lon="-1.75563">
        <ele>20.349235243124</ele>
        <time>2019-10-18T14:38:46Z</time>
      </trkpt>
      <trkpt lat="46.58928" lon="-1.75551">
        <ele>21.349239834826</ele>
        <time>2019-10-18T14:38:53Z</time>
      </trkpt>
      <trkpt lat="46.58925" lon="-1.75539">
        <ele>20.349316445709</ele>
        <time>2019-10-18T14:39:00Z</time>
      </trkpt>
      <trkpt lat="46.58924" lon="-1.75527">
        <ele>20.349442750254</ele>
        <time>2019-10-18T14:39:08Z</time>
      </trkpt>
      <trkpt lat="46.58924" lon="-1.75515">
        <ele>21.349608055083</ele>
        <time>2019-10-18T14:39:15Z</time>
      </trkpt>
      <trkpt lat="46.58923" lon="-1.75502">
        <ele>22.349733488296</ele>
        <time>2019-10-18T14:39:22Z</time>
      </trkpt>
      <trkpt lat="46.58923" lon="-1.7549">
        <ele>18.349921342672</ele>
        <time>2019-10-18T14:39:30Z</time>
      </trkpt>
      <trkpt lat="46.58922" lon="-1.75481">
        <ele>18.350006507718</ele>
        <time>2019-10-18T14:39:35Z</time>
      </trkpt>
      <trkpt lat="46.5892" lon="-1.75468">
        <ele>18.350104466146</ele>
        <time>2019-10-18T14:39:43Z</time>
      </trkpt>
      <trkpt lat="46.58917" lon="-1.75458">
        <ele>17.350142117931</ele>
        <time>2019-10-18T14:39:49Z</time>
      </trkpt>
      <trkpt lat="46.58912" lon="-1.75447">
        <ele>16.350126670804</ele>
        <time>2019-10-18T14:39:56Z</time>
      </trkpt>
      <trkpt lat="46.58906" lon="-1.75437">
        <ele>15.350024126384</ele>
        <time>2019-10-18T14:40:03Z</time>
      </trkpt>
      <trkpt lat="46.58902" lon="-1.75427">
        <ele>15.349979243902</ele>
        <time>2019-10-18T14:40:10Z</time>
      </trkpt>
      <trkpt lat="46.58895" lon="-1.7542">
        <ele>14.349811359408</ele>
        <time>2019-10-18T14:40:17Z</time>
      </trkpt>
      <trkpt lat="46.5889" lon="-1.75413">
        <ele>15.349716414385</ele>
        <time>2019-10-18T14:40:24Z</time>
      </trkpt>
      <trkpt lat="46.58884" lon="-1.75405">
        <ele>14.34957910908</ele>
        <time>2019-10-18T14:40:31Z</time>
      </trkpt>
      <trkpt lat="46.58877" lon="-1.75398">
        <ele>15.349443579637</ele>
        <time>2019-10-18T14:40:38Z</time>
      </trkpt>
      <trkpt lat="46.5887" lon="-1.7539">
        <ele>14.349279907454</ele>
        <time>2019-10-18T14:40:44Z</time>
      </trkpt>
      <trkpt lat="46.58863" lon="-1.75382">
        <ele>13.349115436754</ele>
        <time>2019-10-18T14:40:51Z</time>
      </trkpt>
      <trkpt lat="46.58858" lon="-1.75373">
        <ele>13.349044381835</ele>
        <time>2019-10-18T14:40:59Z</time>
      </trkpt>
      <trkpt lat="46.58851" lon="-1.75365">
        <ele>12.348883452355</ele>
        <time>2019-10-18T14:41:10Z</time>
      </trkpt>
      <trkpt lat="46.5885" lon="-1.75353">
        <ele>11.348990570206</ele>
        <time>2019-10-18T14:41:19Z</time>
      </trkpt>
      <trkpt lat="46.58847" lon="-1.75341">
        <ele>10.349037158578</ele>
        <time>2019-10-18T14:41:28Z</time>
      </trkpt>
      <trkpt lat="46.58843" lon="-1.75329">
        <ele>10.349067213261</ele>
        <time>2019-10-18T14:41:35Z</time>
      </trkpt>
      <trkpt lat="46.58843" lon="-1.75318">
        <ele>11.349224547793</ele>
        <time>2019-10-18T14:41:41Z</time>
      </trkpt>
      <trkpt lat="46.58843" lon="-1.75306">
        <ele>14.349378434119</ele>
        <time>2019-10-18T14:41:48Z</time>
      </trkpt>
      <trkpt lat="46.58842" lon="-1.75293">
        <ele>17.34951939072</ele>
        <time>2019-10-18T14:41:56Z</time>
      </trkpt>
      <trkpt lat="46.58841" lon="-1.7528">
        <ele>19.349679523292</ele>
        <time>2019-10-18T14:42:05Z</time>
      </trkpt>
      <trkpt lat="46.58844" lon="-1.75269">
        <ele>15.34996183253</ele>
        <time>2019-10-18T14:45:47Z</time>
      </trkpt>
      <trkpt lat="46.58852" lon="-1.75264">
        <ele>13.350351401291</ele>
        <time>2019-10-18T14:45:53Z</time>
      </trkpt>
      <trkpt lat="46.58861" lon="-1.7526">
        <ele>13.350741470266</ele>
        <time>2019-10-18T14:46:00Z</time>
      </trkpt>
      <trkpt lat="46.58868" lon="-1.75255">
        <ele>13.35111695148</ele>
        <time>2019-10-18T14:46:09Z</time>
      </trkpt>
      <trkpt lat="46.58877" lon="-1.75251">
        <ele>13.351500266158</ele>
        <time>2019-10-18T14:46:16Z</time>
      </trkpt>
      <trkpt lat="46.58885" lon="-1.75249">
        <ele>13.351874362001</ele>
        <time>2019-10-18T14:46:24Z</time>
      </trkpt>
      <trkpt lat="46.58894" lon="-1.75245">
        <ele>13.352259320879</ele>
        <time>2019-10-18T14:46:32Z</time>
      </trkpt>
      <trkpt lat="46.58902" lon="-1.7524">
        <ele>14.352645683346</ele>
        <time>2019-10-18T14:46:41Z</time>
      </trkpt>
      <trkpt lat="46.5891" lon="-1.75235">
        <ele>15.353037709228</ele>
        <time>2019-10-18T14:46:50Z</time>
      </trkpt>
      <trkpt lat="46.58917" lon="-1.7523">
        <ele>16.353401529689</ele>
        <time>2019-10-18T14:46:57Z</time>
      </trkpt>
      <trkpt lat="46.58925" lon="-1.75224">
        <ele>17.353803015575</ele>
        <time>2019-10-18T14:47:06Z</time>
      </trkpt>
      <trkpt lat="46.58931" lon="-1.75216">
        <ele>18.354167209769</ele>
        <time>2019-10-18T14:47:12Z</time>
      </trkpt>
      <trkpt lat="46.58938" lon="-1.75209">
        <ele>17.354520895655</ele>
        <time>2019-10-18T14:47:19Z</time>
      </trkpt>
      <trkpt lat="46.58944" lon="-1.752">
        <ele>17.354901579407</ele>
        <time>2019-10-18T14:47:27Z</time>
      </trkpt>
      <trkpt lat="46.58951" lon="-1.75192">
        <ele>19.355274416883</ele>
        <time>2019-10-18T14:47:35Z</time>
      </trkpt>
      <trkpt lat="46.58959" lon="-1.75188">
        <ele>20.355666402618</ele>
        <time>2019-10-18T14:47:41Z</time>
      </trkpt>
      <trkpt lat="46.58967" lon="-1.75182">
        <ele>20.356060771719</ele>
        <time>2019-10-18T14:47:50Z</time>
      </trkpt>
      <trkpt lat="46.58975" lon="-1.7518">
        <ele>21.356408607963</ele>
        <time>2019-10-18T14:47:58Z</time>
      </trkpt>
      <trkpt lat="46.58983" lon="-1.75178">
        <ele>22.356743409147</ele>
        <time>2019-10-18T14:48:07Z</time>
      </trkpt>
      <trkpt lat="46.58991" lon="-1.75175">
        <ele>24.357121877182</ele>
        <time>2019-10-18T14:48:14Z</time>
      </trkpt>
      <trkpt lat="46.58999" lon="-1.75173">
        <ele>24.357476600151</ele>
        <time>2019-10-18T14:48:22Z</time>
      </trkpt>
      <trkpt lat="46.59007" lon="-1.75168">
        <ele>25.357861652211</ele>
        <time>2019-10-18T14:48:30Z</time>
      </trkpt>
      <trkpt lat="46.59016" lon="-1.75166">
        <ele>25.358229020398</ele>
        <time>2019-10-18T14:48:38Z</time>
      </trkpt>
      <trkpt lat="46.59024" lon="-1.75163">
        <ele>25.358597453743</ele>
        <time>2019-10-18T14:48:45Z</time>
      </trkpt>
      <trkpt lat="46.59032" lon="-1.75161">
        <ele>24.358953603318</ele>
        <time>2019-10-18T14:48:53Z</time>
      </trkpt>
      <trkpt lat="46.5904" lon="-1.75158">
        <ele>23.359307911082</ele>
        <time>2019-10-18T14:49:00Z</time>
      </trkpt>
      <trkpt lat="46.59048" lon="-1.75155">
        <ele>25.359695666454</ele>
        <time>2019-10-18T14:49:08Z</time>
      </trkpt>
      <trkpt lat="46.59057" lon="-1.75152">
        <ele>25.360055511056</ele>
        <time>2019-10-18T14:49:16Z</time>
      </trkpt>
      <trkpt lat="46.59065" lon="-1.75149">
        <ele>25.360427207392</ele>
        <time>2019-10-18T14:49:24Z</time>
      </trkpt>
      <trkpt lat="46.59073" lon="-1.75145">
        <ele>26.360812786262</ele>
        <time>2019-10-18T14:49:32Z</time>
      </trkpt>
      <trkpt lat="46.59081" lon="-1.75141">
        <ele>27.361182891748</ele>
        <time>2019-10-18T14:49:40Z</time>
      </trkpt>
      <trkpt lat="46.59089" lon="-1.75138">
        <ele>29.361555238412</ele>
        <time>2019-10-18T14:49:50Z</time>
      </trkpt>
      <trkpt lat="46.59097" lon="-1.75135">
        <ele>29.361920574363</ele>
        <time>2019-10-18T14:49:58Z</time>
      </trkpt>
      <trkpt lat="46.59105" lon="-1.75132">
        <ele>31.362275039209</ele>
        <time>2019-10-18T14:50:05Z</time>
      </trkpt>
      <trkpt lat="46.59114" lon="-1.7513">
        <ele>30.362652341084</ele>
        <time>2019-10-18T14:50:13Z</time>
      </trkpt>
      <trkpt lat="46.59122" lon="-1.75124">
        <ele>31.363050717546</ele>
        <time>2019-10-18T14:50:20Z</time>
      </trkpt>
      <trkpt lat="46.5913" lon="-1.7512">
        <ele>31.363425758174</ele>
        <time>2019-10-18T14:50:28Z</time>
      </trkpt>
      <trkpt lat="46.59138" lon="-1.75117">
        <ele>32.363802516471</ele>
        <time>2019-10-18T14:50:34Z</time>
      </trkpt>
      <trkpt lat="46.59146" lon="-1.75112">
        <ele>32.364178175278</ele>
        <time>2019-10-18T14:50:40Z</time>
      </trkpt>
      <trkpt lat="46.59154" lon="-1.75108">
        <ele>34.364568272607</ele>
        <time>2019-10-18T14:50:48Z</time>
      </trkpt>
      <trkpt lat="46.5916" lon="-1.75102">
        <ele>34.364909659577</ele>
        <time>2019-10-18T14:50:54Z</time>
      </trkpt>
      <trkpt lat="46.59168" lon="-1.75097">
        <ele>33.365299831989</ele>
        <time>2019-10-18T14:51:01Z</time>
      </trkpt>
      <trkpt lat="46.59175" lon="-1.7509">
        <ele>33.365690242956</ele>
        <time>2019-10-18T14:51:09Z</time>
      </trkpt>
      <trkpt lat="46.59183" lon="-1.75083">
        <ele>32.366085107534</ele>
        <time>2019-10-18T14:51:17Z</time>
      </trkpt>
      <trkpt lat="46.5919" lon="-1.75076">
        <ele>33.366482451629</ele>
        <time>2019-10-18T14:51:25Z</time>
      </trkpt>
      <trkpt lat="46.59197" lon="-1.75071">
        <ele>33.366835751157</ele>
        <time>2019-10-18T14:51:32Z</time>
      </trkpt>
      <trkpt lat="46.59204" lon="-1.75066">
        <ele>35.367201905827</ele>
        <time>2019-10-18T14:51:38Z</time>
      </trkpt>
      <trkpt lat="46.59211" lon="-1.75059">
        <ele>35.367586801253</ele>
        <time>2019-10-18T14:51:45Z</time>
      </trkpt>
      <trkpt lat="46.59218" lon="-1.75054">
        <ele>34.367934523051</ele>
        <time>2019-10-18T14:51:52Z</time>
      </trkpt>
      <trkpt lat="46.59225" lon="-1.75049">
        <ele>36.368288924526</ele>
        <time>2019-10-18T14:51:58Z</time>
      </trkpt>
      <trkpt lat="46.59233" lon="-1.75042">
        <ele>36.368692281912</ele>
        <time>2019-10-18T14:52:07Z</time>
      </trkpt>
      <trkpt lat="46.5924" lon="-1.75034">
        <ele>35.369090237717</ele>
        <time>2019-10-18T14:52:14Z</time>
      </trkpt>
      <trkpt lat="46.59247" lon="-1.75029">
        <ele>35.369464749773</ele>
        <time>2019-10-18T14:52:20Z</time>
      </trkpt>
      <trkpt lat="46.59255" lon="-1.75023">
        <ele>32.369861947594</ele>
        <time>2019-10-18T14:52:27Z</time>
      </trkpt>
      <trkpt lat="46.59263" lon="-1.75018">
        <ele>33.370243567418</ele>
        <time>2019-10-18T14:52:34Z</time>
      </trkpt>
      <trkpt lat="46.59271" lon="-1.75013">
        <ele>33.37063962296</ele>
        <time>2019-10-18T14:52:43Z</time>
      </trkpt>
      <trkpt lat="46.59279" lon="-1.75011">
        <ele>34.370993405772</ele>
        <time>2019-10-18T14:53:12Z</time>
      </trkpt>
      <trkpt lat="46.59286" lon="-1.75018">
        <ele>34.371182778784</ele>
        <time>2019-10-18T14:53:21Z</time>
      </trkpt>
      <trkpt lat="46.59292" lon="-1.75027">
        <ele>33.371286086629</ele>
        <time>2019-10-18T14:53:30Z</time>
      </trkpt>
      <trkpt lat="46.593" lon="-1.75034">
        <ele>32.371471679624</ele>
        <time>2019-10-18T14:53:38Z</time>
      </trkpt>
      <trkpt lat="46.59305" lon="-1.75043">
        <ele>31.371578473193</ele>
        <time>2019-10-18T14:53:46Z</time>
      </trkpt>
      <trkpt lat="46.59311" lon="-1.75051">
        <ele>29.371684174335</ele>
        <time>2019-10-18T14:53:54Z</time>
      </trkpt>
      <trkpt lat="46.59317" lon="-1.7506">
        <ele>27.371786131925</ele>
        <time>2019-10-18T14:54:02Z</time>
      </trkpt>
      <trkpt lat="46.59323" lon="-1.75068">
        <ele>29.371889632115</ele>
        <time>2019-10-18T14:54:10Z</time>
      </trkpt>
      <trkpt lat="46.59328" lon="-1.75076">
        <ele>29.371989385411</ele>
        <time>2019-10-18T14:54:17Z</time>
      </trkpt>
      <trkpt lat="46.59334" lon="-1.75085">
        <ele>30.372092346882</ele>
        <time>2019-10-18T14:54:25Z</time>
      </trkpt>
      <trkpt lat="46.5934" lon="-1.75095">
        <ele>32.372199976389</ele>
        <time>2019-10-18T14:54:33Z</time>
      </trkpt>
      <trkpt lat="46.59347" lon="-1.751">
        <ele>33.372388580669</ele>
        <time>2019-10-18T14:54:40Z</time>
      </trkpt>
      <trkpt lat="46.59355" lon="-1.75096">
        <ele>34.372775141899</ele>
        <time>2019-10-18T14:54:51Z</time>
      </trkpt>
      <trkpt lat="46.59358" lon="-1.75084">
        <ele>35.373052170155</ele>
        <time>2019-10-18T14:55:00Z</time>
      </trkpt>
      <trkpt lat="46.5936" lon="-1.75073">
        <ele>36.373307093282</ele>
        <time>2019-10-18T14:55:07Z</time>
      </trkpt>
      <trkpt lat="46.5936" lon="-1.7506">
        <ele>36.373491910642</ele>
        <time>2019-10-18T14:55:15Z</time>
      </trkpt>
      <trkpt lat="46.59361" lon="-1.75049">
        <ele>36.373707040408</ele>
        <time>2019-10-18T14:55:23Z</time>
      </trkpt>
      <trkpt lat="46.59362" lon="-1.75037">
        <ele>36.373907154289</ele>
        <time>2019-10-18T14:55:30Z</time>
      </trkpt>
      <trkpt lat="46.59363" lon="-1.75024">
        <ele>38.374144461907</ele>
        <time>2019-10-18T14:55:39Z</time>
      </trkpt>
      <trkpt lat="46.59365" lon="-1.75012">
        <ele>39.374416633131</ele>
        <time>2019-10-18T14:56:19Z</time>
      </trkpt>
      <trkpt lat="46.59368" lon="-1.75001">
        <ele>38.374699209492</ele>
        <time>2019-10-18T14:56:26Z</time>
      </trkpt>
      <trkpt lat="46.5937" lon="-1.7499">
        <ele>39.37505059471</ele>
        <time>2019-10-18T14:56:32Z</time>
      </trkpt>
      <trkpt lat="46.59371" lon="-1.74978">
        <ele>39.375407542034</ele>
        <time>2019-10-18T14:56:39Z</time>
      </trkpt>
      <trkpt lat="46.59374" lon="-1.74966">
        <ele>37.375839526364</ele>
        <time>2019-10-18T14:56:47Z</time>
      </trkpt>
      <trkpt lat="46.59377" lon="-1.74953">
        <ele>36.376259878917</ele>
        <time>2019-10-18T14:56:54Z</time>
      </trkpt>
      <trkpt lat="46.59379" lon="-1.74943">
        <ele>38.376612116303</ele>
        <time>2019-10-18T14:57:01Z</time>
      </trkpt>
      <trkpt lat="46.5938" lon="-1.74931">
        <ele>38.37693762542</ele>
        <time>2019-10-18T14:57:08Z</time>
      </trkpt>
      <trkpt lat="46.59383" lon="-1.7492">
        <ele>38.377335067874</ele>
        <time>2019-10-18T14:57:15Z</time>
      </trkpt>
      <trkpt lat="46.59388" lon="-1.7491">
        <ele>39.377773948841</ele>
        <time>2019-10-18T14:57:22Z</time>
      </trkpt>
      <trkpt lat="46.59394" lon="-1.74903">
        <ele>40.378193784783</ele>
        <time>2019-10-18T14:57:28Z</time>
      </trkpt>
      <trkpt lat="46.59399" lon="-1.74892">
        <ele>40.37863197541</ele>
        <time>2019-10-18T14:57:35Z</time>
      </trkpt>
      <trkpt lat="46.59404" lon="-1.74883">
        <ele>39.379100742755</ele>
        <time>2019-10-18T14:57:43Z</time>
      </trkpt>
      <trkpt lat="46.5941" lon="-1.74874">
        <ele>39.379534246046</ele>
        <time>2019-10-18T14:57:50Z</time>
      </trkpt>
      <trkpt lat="46.59415" lon="-1.74865">
        <ele>40.37997420852</ele>
        <time>2019-10-18T14:57:57Z</time>
      </trkpt>
      <trkpt lat="46.5942" lon="-1.74855">
        <ele>40.38039644591</ele>
        <time>2019-10-18T14:58:05Z</time>
      </trkpt>
      <trkpt lat="46.59425" lon="-1.74846">
        <ele>39.380836716709</ele>
        <time>2019-10-18T14:58:13Z</time>
      </trkpt>
      <trkpt lat="46.59431" lon="-1.74837">
        <ele>40.381303876738</ele>
        <time>2019-10-18T14:58:21Z</time>
      </trkpt>
      <trkpt lat="46.59437" lon="-1.74828">
        <ele>40.381759449085</ele>
        <time>2019-10-18T14:58:30Z</time>
      </trkpt>
      <trkpt lat="46.59443" lon="-1.74821">
        <ele>39.382192205631</ele>
        <time>2019-10-18T14:58:37Z</time>
      </trkpt>
      <trkpt lat="46.5945" lon="-1.74813">
        <ele>39.38265614007</ele>
        <time>2019-10-18T14:58:44Z</time>
      </trkpt>
      <trkpt lat="46.59456" lon="-1.74805">
        <ele>40.383112023284</ele>
        <time>2019-10-18T14:58:53Z</time>
      </trkpt>
      <trkpt lat="46.59464" lon="-1.74799">
        <ele>40.383550821934</ele>
        <time>2019-10-18T14:59:00Z</time>
      </trkpt>
      <trkpt lat="46.5947" lon="-1.74791">
        <ele>40.384005087274</ele>
        <time>2019-10-18T14:59:10Z</time>
      </trkpt>
      <trkpt lat="46.59478" lon="-1.74786">
        <ele>39.384428374922</ele>
        <time>2019-10-18T14:59:18Z</time>
      </trkpt>
      <trkpt lat="46.59485" lon="-1.7478">
        <ele>39.384886225962</ele>
        <time>2019-10-18T14:59:26Z</time>
      </trkpt>
      <trkpt lat="46.59492" lon="-1.74772">
        <ele>39.385324423443</ele>
        <time>2019-10-18T14:59:34Z</time>
      </trkpt>
      <trkpt lat="46.59499" lon="-1.74766">
        <ele>41.385774305182</ele>
        <time>2019-10-18T14:59:42Z</time>
      </trkpt>
      <trkpt lat="46.59507" lon="-1.74761">
        <ele>40.386186595854</ele>
        <time>2019-10-18T14:59:49Z</time>
      </trkpt>
      <trkpt lat="46.59514" lon="-1.74755">
        <ele>41.386646922764</ele>
        <time>2019-10-18T14:59:57Z</time>
      </trkpt>
      <trkpt lat="46.59521" lon="-1.74746">
        <ele>41.387121506648</ele>
        <time>2019-10-18T15:00:06Z</time>
      </trkpt>
      <trkpt lat="46.59528" lon="-1.7474">
        <ele>41.387571548335</ele>
        <time>2019-10-18T15:00:13Z</time>
      </trkpt>
      <trkpt lat="46.59535" lon="-1.74733">
        <ele>41.387994518901</ele>
        <time>2019-10-18T15:00:20Z</time>
      </trkpt>
      <trkpt lat="46.59542" lon="-1.74728">
        <ele>41.388420540565</ele>
        <time>2019-10-18T15:00:27Z</time>
      </trkpt>
      <trkpt lat="46.5955" lon="-1.74722">
        <ele>41.388869681012</ele>
        <time>2019-10-18T15:00:35Z</time>
      </trkpt>
      <trkpt lat="46.59556" lon="-1.74714">
        <ele>40.389304496651</ele>
        <time>2019-10-18T15:00:42Z</time>
      </trkpt>
      <trkpt lat="46.59564" lon="-1.74711">
        <ele>42.389697453127</ele>
        <time>2019-10-18T15:00:53Z</time>
      </trkpt>
      <trkpt lat="46.59571" lon="-1.74718">
        <ele>39.38981100112</ele>
        <time>2019-10-18T15:01:03Z</time>
      </trkpt>
      <trkpt lat="46.59578" lon="-1.74725">
        <ele>41.389902560418</ele>
        <time>2019-10-18T15:01:12Z</time>
      </trkpt>
      <trkpt lat="46.59585" lon="-1.74732">
        <ele>43.390032695938</ele>
        <time>2019-10-18T15:01:19Z</time>
      </trkpt>
      <trkpt lat="46.59594" lon="-1.74736">
        <ele>43.390241324856</ele>
        <time>2019-10-18T15:01:29Z</time>
      </trkpt>
      <trkpt lat="46.59602" lon="-1.74734">
        <ele>42.390604218796</ele>
        <time>2019-10-18T15:01:36Z</time>
      </trkpt>
      <trkpt lat="46.59609" lon="-1.74729">
        <ele>42.391029929619</ele>
        <time>2019-10-18T15:01:43Z</time>
      </trkpt>
      <trkpt lat="46.59616" lon="-1.74723">
        <ele>42.391465532124</ele>
        <time>2019-10-18T15:01:50Z</time>
      </trkpt>
      <trkpt lat="46.59623" lon="-1.74715">
        <ele>42.39193214035</ele>
        <time>2019-10-18T15:01:57Z</time>
      </trkpt>
      <trkpt lat="46.5963" lon="-1.74708">
        <ele>42.392368026139</ele>
        <time>2019-10-18T15:02:06Z</time>
      </trkpt>
      <trkpt lat="46.59637" lon="-1.747">
        <ele>41.392839751696</ele>
        <time>2019-10-18T15:02:14Z</time>
      </trkpt>
      <trkpt lat="46.59644" lon="-1.74692">
        <ele>42.393314487141</ele>
        <time>2019-10-18T15:02:22Z</time>
      </trkpt>
      <trkpt lat="46.5965" lon="-1.74687">
        <ele>43.393694587316</ele>
        <time>2019-10-18T15:02:34Z</time>
      </trkpt>
      <trkpt lat="46.59657" lon="-1.74681">
        <ele>43.39413914236</ele>
        <time>2019-10-18T15:02:42Z</time>
      </trkpt>
      <trkpt lat="46.59665" lon="-1.74674">
        <ele>44.39458524712</ele>
        <time>2019-10-18T15:02:50Z</time>
      </trkpt>
      <trkpt lat="46.59672" lon="-1.74668">
        <ele>43.395036628643</ele>
        <time>2019-10-18T15:02:58Z</time>
      </trkpt>
      <trkpt lat="46.59679" lon="-1.74663">
        <ele>43.395435238021</ele>
        <time>2019-10-18T15:03:05Z</time>
      </trkpt>
      <trkpt lat="46.59687" lon="-1.74657">
        <ele>44.395865276987</ele>
        <time>2019-10-18T15:03:13Z</time>
      </trkpt>
      <trkpt lat="46.59694" lon="-1.74654">
        <ele>44.3962459876</ele>
        <time>2019-10-18T15:03:21Z</time>
      </trkpt>
      <trkpt lat="46.59702" lon="-1.74652">
        <ele>44.396619919226</ele>
        <time>2019-10-18T15:03:28Z</time>
      </trkpt>
      <trkpt lat="46.59711" lon="-1.7465">
        <ele>44.396990628219</ele>
        <time>2019-10-18T15:03:36Z</time>
      </trkpt>
      <trkpt lat="46.59719" lon="-1.74646">
        <ele>46.397431809132</ele>
        <time>2019-10-18T15:03:45Z</time>
      </trkpt>
      <trkpt lat="46.59727" lon="-1.74641">
        <ele>47.39785987239</ele>
        <time>2019-10-18T15:03:53Z</time>
      </trkpt>
      <trkpt lat="46.59735" lon="-1.74635">
        <ele>49.398312639797</ele>
        <time>2019-10-18T15:04:01Z</time>
      </trkpt>
      <trkpt lat="46.59742" lon="-1.7463">
        <ele>49.398715782428</ele>
        <time>2019-10-18T15:04:08Z</time>
      </trkpt>
      <trkpt lat="46.59749" lon="-1.74624">
        <ele>49.399137394988</ele>
        <time>2019-10-18T15:04:14Z</time>
      </trkpt>
      <trkpt lat="46.59756" lon="-1.74617">
        <ele>47.399576084642</ele>
        <time>2019-10-18T15:04:21Z</time>
      </trkpt>
      <trkpt lat="46.59761" lon="-1.74607">
        <ele>49.400005283463</ele>
        <time>2019-10-18T15:04:28Z</time>
      </trkpt>
      <trkpt lat="46.59769" lon="-1.74606">
        <ele>49.40037109555</ele>
        <time>2019-10-18T15:05:34Z</time>
      </trkpt>
      <trkpt lat="46.59777" lon="-1.74607">
        <ele>47.400670830816</ele>
        <time>2019-10-18T15:05:41Z</time>
      </trkpt>
      <trkpt lat="46.59785" lon="-1.74612">
        <ele>46.400840700059</ele>
        <time>2019-10-18T15:05:49Z</time>
      </trkpt>
      <trkpt lat="46.59788" lon="-1.74623">
        <ele>47.400704889302</ele>
        <time>2019-10-18T15:05:57Z</time>
      </trkpt>
      <trkpt lat="46.5979" lon="-1.74635">
        <ele>48.400485519356</ele>
        <time>2019-10-18T15:06:04Z</time>
      </trkpt>
      <trkpt lat="46.59793" lon="-1.74647">
        <ele>49.400290600499</ele>
        <time>2019-10-18T15:06:11Z</time>
      </trkpt>
      <trkpt lat="46.59796" lon="-1.74659">
        <ele>50.400131982707</ele>
        <time>2019-10-18T15:06:19Z</time>
      </trkpt>
      <trkpt lat="46.59799" lon="-1.74669">
        <ele>50.400020672777</ele>
        <time>2019-10-18T15:06:26Z</time>
      </trkpt>
      <trkpt lat="46.59803" lon="-1.7468">
        <ele>51.399886458203</ele>
        <time>2019-10-18T15:06:33Z</time>
      </trkpt>
      <trkpt lat="46.59806" lon="-1.74692">
        <ele>51.399742787419</ele>
        <time>2019-10-18T15:06:45Z</time>
      </trkpt>
      <trkpt lat="46.59807" lon="-1.74703">
        <ele>51.39950755162</ele>
        <time>2019-10-18T15:07:15Z</time>
      </trkpt>
      <trkpt lat="46.59811" lon="-1.74714">
        <ele>51.399378919557</ele>
        <time>2019-10-18T15:07:23Z</time>
      </trkpt>
      <trkpt lat="46.59814" lon="-1.74725">
        <ele>51.39923150429</ele>
        <time>2019-10-18T15:07:30Z</time>
      </trkpt>
      <trkpt lat="46.59816" lon="-1.74737">
        <ele>52.399022662418</ele>
        <time>2019-10-18T15:07:37Z</time>
      </trkpt>
      <trkpt lat="46.59818" lon="-1.74749">
        <ele>51.398817652902</ele>
        <time>2019-10-18T15:07:44Z</time>
      </trkpt>
      <trkpt lat="46.59821" lon="-1.7476">
        <ele>51.398652104042</ele>
        <time>2019-10-18T15:07:51Z</time>
      </trkpt>
      <trkpt lat="46.59824" lon="-1.74771">
        <ele>50.398492462296</ele>
        <time>2019-10-18T15:08:09Z</time>
      </trkpt>
      <trkpt lat="46.59826" lon="-1.74784">
        <ele>52.39828096552</ele>
        <time>2019-10-18T15:08:15Z</time>
      </trkpt>
      <trkpt lat="46.59828" lon="-1.74796">
        <ele>53.398045149492</ele>
        <time>2019-10-18T15:08:23Z</time>
      </trkpt>
      <trkpt lat="46.59831" lon="-1.74808">
        <ele>53.397883375998</ele>
        <time>2019-10-18T15:08:32Z</time>
      </trkpt>
      <trkpt lat="46.59832" lon="-1.7482">
        <ele>52.397624529861</ele>
        <time>2019-10-18T15:08:39Z</time>
      </trkpt>
      <trkpt lat="46.59829" lon="-1.74831">
        <ele>51.397242728398</ele>
        <time>2019-10-18T15:08:45Z</time>
      </trkpt>
      <trkpt lat="46.59829" lon="-1.74844">
        <ele>52.396954936216</ele>
        <time>2019-10-18T15:08:51Z</time>
      </trkpt>
      <trkpt lat="46.59831" lon="-1.74856">
        <ele>54.396709005369</ele>
        <time>2019-10-18T15:08:57Z</time>
      </trkpt>
      <trkpt lat="46.59833" lon="-1.74868">
        <ele>54.396510483462</ele>
        <time>2019-10-18T15:09:04Z</time>
      </trkpt>
      <trkpt lat="46.59836" lon="-1.7488">
        <ele>54.396347880997</ele>
        <time>2019-10-18T15:09:12Z</time>
      </trkpt>
      <trkpt lat="46.59839" lon="-1.7489">
        <ele>53.39623105857</ele>
        <time>2019-10-18T15:09:18Z</time>
      </trkpt>
      <trkpt lat="46.59844" lon="-1.74902">
        <ele>53.396146037565</ele>
        <time>2019-10-18T15:09:25Z</time>
      </trkpt>
      <trkpt lat="46.59849" lon="-1.74912">
        <ele>53.396100796688</ele>
        <time>2019-10-18T15:09:33Z</time>
      </trkpt>
      <trkpt lat="46.59854" lon="-1.74921">
        <ele>53.396092041396</ele>
        <time>2019-10-18T15:09:40Z</time>
      </trkpt>
      <trkpt lat="46.5986" lon="-1.74929">
        <ele>53.396118622414</ele>
        <time>2019-10-18T15:09:48Z</time>
      </trkpt>
      <trkpt lat="46.59866" lon="-1.74938">
        <ele>54.396146949422</ele>
        <time>2019-10-18T15:09:55Z</time>
      </trkpt>
      <trkpt lat="46.59872" lon="-1.74946">
        <ele>55.396172453211</ele>
        <time>2019-10-18T15:10:02Z</time>
      </trkpt>
      <trkpt lat="46.59879" lon="-1.74954">
        <ele>54.396249605893</ele>
        <time>2019-10-18T15:10:10Z</time>
      </trkpt>
      <trkpt lat="46.59884" lon="-1.74964">
        <ele>53.396231589737</ele>
        <time>2019-10-18T15:10:17Z</time>
      </trkpt>
      <trkpt lat="46.5989" lon="-1.74973">
        <ele>54.396235096124</ele>
        <time>2019-10-18T15:10:25Z</time>
      </trkpt>
      <trkpt lat="46.59896" lon="-1.74982">
        <ele>51.396268599034</ele>
        <time>2019-10-18T15:10:33Z</time>
      </trkpt>
      <trkpt lat="46.59901" lon="-1.74993">
        <ele>50.396187113285</ele>
        <time>2019-10-18T15:10:41Z</time>
      </trkpt>
      <trkpt lat="46.59904" lon="-1.75005">
        <ele>51.39610184016</ele>
        <time>2019-10-18T15:10:48Z</time>
      </trkpt>
      <trkpt lat="46.59908" lon="-1.75016">
        <ele>51.396058372234</ele>
        <time>2019-10-18T15:10:55Z</time>
      </trkpt>
      <trkpt lat="46.59913" lon="-1.75027">
        <ele>50.396077948928</ele>
        <time>2019-10-18T15:11:02Z</time>
      </trkpt>
      <trkpt lat="46.59916" lon="-1.75037">
        <ele>49.396073359006</ele>
        <time>2019-10-18T15:11:08Z</time>
      </trkpt>
      <trkpt lat="46.59918" lon="-1.75048">
        <ele>49.395960023778</ele>
        <time>2019-10-18T15:11:14Z</time>
      </trkpt>
      <trkpt lat="46.59921" lon="-1.75059">
        <ele>49.395887916237</ele>
        <time>2019-10-18T15:11:22Z</time>
      </trkpt>
      <trkpt lat="46.59923" lon="-1.75071">
        <ele>48.395773006146</ele>
        <time>2019-10-18T15:11:29Z</time>
      </trkpt>
      <trkpt lat="46.59927" lon="-1.75082">
        <ele>47.395779081057</ele>
        <time>2019-10-18T15:11:37Z</time>
      </trkpt>
      <trkpt lat="46.59931" lon="-1.75092">
        <ele>46.395792420067</ele>
        <time>2019-10-18T15:11:45Z</time>
      </trkpt>
      <trkpt lat="46.59934" lon="-1.75104">
        <ele>46.395715076367</ele>
        <time>2019-10-18T15:11:52Z</time>
      </trkpt>
      <trkpt lat="46.59939" lon="-1.75115">
        <ele>46.395709619379</ele>
        <time>2019-10-18T15:12:00Z</time>
      </trkpt>
      <trkpt lat="46.59942" lon="-1.75127">
        <ele>45.395662422989</ele>
        <time>2019-10-18T15:12:08Z</time>
      </trkpt>
      <trkpt lat="46.59945" lon="-1.75139">
        <ele>46.395591350784</ele>
        <time>2019-10-18T15:12:15Z</time>
      </trkpt>
      <trkpt lat="46.59948" lon="-1.75149">
        <ele>47.395554547251</ele>
        <time>2019-10-18T15:12:22Z</time>
      </trkpt>
      <trkpt lat="46.59952" lon="-1.7516">
        <ele>47.395516447441</ele>
        <time>2019-10-18T15:12:29Z</time>
      </trkpt>
      <trkpt lat="46.59957" lon="-1.75171">
        <ele>49.39554301426</ele>
        <time>2019-10-18T15:12:37Z</time>
      </trkpt>
      <trkpt lat="46.59961" lon="-1.75182">
        <ele>49.395537722411</ele>
        <time>2019-10-18T15:12:44Z</time>
      </trkpt>
      <trkpt lat="46.59964" lon="-1.75193">
        <ele>48.39548569218</ele>
        <time>2019-10-18T15:12:52Z</time>
      </trkpt>
      <trkpt lat="46.59967" lon="-1.75204">
        <ele>47.395437444078</ele>
        <time>2019-10-18T15:12:58Z</time>
      </trkpt>
      <trkpt lat="46.59971" lon="-1.75215">
        <ele>47.395400781119</ele>
        <time>2019-10-18T15:13:04Z</time>
      </trkpt>
      <trkpt lat="46.59973" lon="-1.75227">
        <ele>47.395306771548</ele>
        <time>2019-10-18T15:13:13Z</time>
      </trkpt>
      <trkpt lat="46.59976" lon="-1.75238">
        <ele>46.395236756397</ele>
        <time>2019-10-18T15:13:19Z</time>
      </trkpt>
      <trkpt lat="46.59978" lon="-1.75248">
        <ele>45.395168812942</ele>
        <time>2019-10-18T15:13:24Z</time>
      </trkpt>
      <trkpt lat="46.59983" lon="-1.75258">
        <ele>46.395176620402</ele>
        <time>2019-10-18T15:13:31Z</time>
      </trkpt>
      <trkpt lat="46.59989" lon="-1.75266">
        <ele>46.395300409175</ele>
        <time>2019-10-18T15:13:38Z</time>
      </trkpt>
      <trkpt lat="46.59995" lon="-1.75274">
        <ele>48.395409340333</ele>
        <time>2019-10-18T15:13:46Z</time>
      </trkpt>
      <trkpt lat="46.60001" lon="-1.75281">
        <ele>49.395531286424</ele>
        <time>2019-10-18T15:13:53Z</time>
      </trkpt>
      <trkpt lat="46.60008" lon="-1.75288">
        <ele>50.395709925393</ele>
        <time>2019-10-18T15:14:01Z</time>
      </trkpt>
      <trkpt lat="46.60014" lon="-1.75296">
        <ele>51.395817876933</ele>
        <time>2019-10-18T15:14:09Z</time>
      </trkpt>
      <trkpt lat="46.6002" lon="-1.75305">
        <ele>51.395899874304</ele>
        <time>2019-10-18T15:14:16Z</time>
      </trkpt>
      <trkpt lat="46.60026" lon="-1.75312">
        <ele>51.396030409217</ele>
        <time>2019-10-18T15:14:23Z</time>
      </trkpt>
      <trkpt lat="46.60032" lon="-1.75321">
        <ele>51.396107583155</ele>
        <time>2019-10-18T15:14:30Z</time>
      </trkpt>
      <trkpt lat="46.60039" lon="-1.75328">
        <ele>53.396268540821</ele>
        <time>2019-10-18T15:14:38Z</time>
      </trkpt>
      <trkpt lat="46.60045" lon="-1.75338">
        <ele>54.396355158127</ele>
        <time>2019-10-18T15:14:45Z</time>
      </trkpt>
      <trkpt lat="46.6005" lon="-1.75346">
        <ele>55.39644711269</ele>
        <time>2019-10-18T15:14:52Z</time>
      </trkpt>
      <trkpt lat="46.60056" lon="-1.75355">
        <ele>53.396528117722</ele>
        <time>2019-10-18T15:15:00Z</time>
      </trkpt>
      <trkpt lat="46.60062" lon="-1.75364">
        <ele>53.3966080169</ele>
        <time>2019-10-18T15:15:08Z</time>
      </trkpt>
      <trkpt lat="46.60069" lon="-1.75373">
        <ele>54.396738892449</ele>
        <time>2019-10-18T15:15:16Z</time>
      </trkpt>
      <trkpt lat="46.60075" lon="-1.75381">
        <ele>56.396849489275</ele>
        <time>2019-10-18T15:15:24Z</time>
      </trkpt>
      <trkpt lat="46.60082" lon="-1.75389">
        <ele>55.396981195028</ele>
        <time>2019-10-18T15:15:33Z</time>
      </trkpt>
      <trkpt lat="46.60089" lon="-1.75398">
        <ele>54.397120280786</ele>
        <time>2019-10-18T15:15:41Z</time>
      </trkpt>
      <trkpt lat="46.60094" lon="-1.75405">
        <ele>55.397225148625</ele>
        <time>2019-10-18T15:15:47Z</time>
      </trkpt>
      <trkpt lat="46.60099" lon="-1.75415">
        <ele>53.397251239803</ele>
        <time>2019-10-18T15:15:54Z</time>
      </trkpt>
      <trkpt lat="46.60105" lon="-1.75423">
        <ele>51.39736772522</ele>
        <time>2019-10-18T15:16:00Z</time>
      </trkpt>
      <trkpt lat="46.6011" lon="-1.75432">
        <ele>52.397416495029</ele>
        <time>2019-10-18T15:16:07Z</time>
      </trkpt>
      <trkpt lat="46.60112" lon="-1.75444">
        <ele>53.397289603782</ele>
        <time>2019-10-18T15:16:18Z</time>
      </trkpt>
      <trkpt lat="46.60106" lon="-1.75453">
        <ele>53.396909345792</ele>
        <time>2019-10-18T15:16:25Z</time>
      </trkpt>
      <trkpt lat="46.60107" lon="-1.75465">
        <ele>56.396756281586</ele>
        <time>2019-10-18T15:16:39Z</time>
      </trkpt>
      <trkpt lat="46.60106" lon="-1.75477">
        <ele>56.396534058039</ele>
        <time>2019-10-18T15:16:46Z</time>
      </trkpt>
      <trkpt lat="46.60105" lon="-1.75488">
        <ele>55.396306625098</ele>
        <time>2019-10-18T15:16:55Z</time>
      </trkpt>
      <trkpt lat="46.60105" lon="-1.755">
        <ele>55.396125133449</ele>
        <time>2019-10-18T15:17:03Z</time>
      </trkpt>
      <trkpt lat="46.601" lon="-1.75509">
        <ele>52.39575104414</ele>
        <time>2019-10-18T15:17:12Z</time>
      </trkpt>
      <trkpt lat="46.60091" lon="-1.75511">
        <ele>54.395401164272</ele>
        <time>2019-10-18T15:17:18Z</time>
      </trkpt>
      <trkpt lat="46.60084" lon="-1.75517">
        <ele>53.395017529958</ele>
        <time>2019-10-18T15:17:25Z</time>
      </trkpt>
      <trkpt lat="46.60082" lon="-1.7553">
        <ele>54.394734282955</ele>
        <time>2019-10-18T15:17:31Z</time>
      </trkpt>
      <trkpt lat="46.60083" lon="-1.75542">
        <ele>54.394565849303</ele>
        <time>2019-10-18T15:17:38Z</time>
      </trkpt>
      <trkpt lat="46.60084" lon="-1.75555">
        <ele>54.3943931529</ele>
        <time>2019-10-18T15:17:45Z</time>
      </trkpt>
      <trkpt lat="46.6008" lon="-1.75565">
        <ele>54.394095504981</ele>
        <time>2019-10-18T15:17:52Z</time>
      </trkpt>
      <trkpt lat="46.60079" lon="-1.75578">
        <ele>51.393815691774</ele>
        <time>2019-10-18T15:18:02Z</time>
      </trkpt>
      <trkpt lat="46.60073" lon="-1.75588">
        <ele>52.393449362319</ele>
        <time>2019-10-18T15:18:10Z</time>
      </trkpt>
      <trkpt lat="46.6007" lon="-1.756">
        <ele>51.393143694273</ele>
        <time>2019-10-18T15:18:17Z</time>
      </trkpt>
      <trkpt lat="46.60072" lon="-1.75613">
        <ele>48.393009239594</ele>
        <time>2019-10-18T15:19:30Z</time>
      </trkpt>
      <trkpt lat="46.60081" lon="-1.75614">
        <ele>47.393338618196</ele>
        <time>2019-10-18T15:19:38Z</time>
      </trkpt>
      <trkpt lat="46.60089" lon="-1.75615">
        <ele>49.393637813143</ele>
        <time>2019-10-18T15:19:47Z</time>
      </trkpt>
      <trkpt lat="46.60098" lon="-1.75617">
        <ele>50.39393832336</ele>
        <time>2019-10-18T15:19:54Z</time>
      </trkpt>
      <trkpt lat="46.60106" lon="-1.75621">
        <ele>51.394187583701</ele>
        <time>2019-10-18T15:20:03Z</time>
      </trkpt>
      <trkpt lat="46.60114" lon="-1.75623">
        <ele>52.394482181394</ele>
        <time>2019-10-18T15:20:11Z</time>
      </trkpt>
      <trkpt lat="46.60122" lon="-1.75619">
        <ele>52.394851553499</ele>
        <time>2019-10-18T15:20:18Z</time>
      </trkpt>
      <trkpt lat="46.60126" lon="-1.7563">
        <ele>50.394815242115</ele>
        <time>2019-10-18T15:20:28Z</time>
      </trkpt>
      <trkpt lat="46.60134" lon="-1.7563">
        <ele>47.395146145729</ele>
        <time>2019-10-18T15:20:37Z</time>
      </trkpt>
      <trkpt lat="46.60142" lon="-1.75626">
        <ele>50.395528508445</ele>
        <time>2019-10-18T15:20:45Z</time>
      </trkpt>
      <trkpt lat="46.6015" lon="-1.75625">
        <ele>52.395848051201</ele>
        <time>2019-10-18T15:20:53Z</time>
      </trkpt>
      <trkpt lat="46.60159" lon="-1.75625">
        <ele>54.396183661035</ele>
        <time>2019-10-18T15:21:00Z</time>
      </trkpt>
      <trkpt lat="46.60167" lon="-1.75631">
        <ele>53.396405961364</ele>
        <time>2019-10-18T15:21:09Z</time>
      </trkpt>
      <trkpt lat="46.60172" lon="-1.75639">
        <ele>52.396476171239</ele>
        <time>2019-10-18T15:21:15Z</time>
      </trkpt>
      <trkpt lat="46.60176" lon="-1.75649">
        <ele>51.396478785898</ele>
        <time>2019-10-18T15:21:23Z</time>
      </trkpt>
      <trkpt lat="46.60179" lon="-1.75661">
        <ele>50.396389368596</ele>
        <time>2019-10-18T15:21:30Z</time>
      </trkpt>
      <trkpt lat="46.60177" lon="-1.75673">
        <ele>48.396106554768</ele>
        <time>2019-10-18T15:21:37Z</time>
      </trkpt>
      <trkpt lat="46.60175" lon="-1.75684">
        <ele>47.395868183225</ele>
        <time>2019-10-18T15:21:45Z</time>
      </trkpt>
      <trkpt lat="46.60176" lon="-1.75697">
        <ele>48.395682238167</ele>
        <time>2019-10-18T15:21:52Z</time>
      </trkpt>
      <trkpt lat="46.60177" lon="-1.75709">
        <ele>50.395533993041</ele>
        <time>2019-10-18T15:21:59Z</time>
      </trkpt>
      <trkpt lat="46.60177" lon="-1.75722">
        <ele>49.395332727504</ele>
        <time>2019-10-18T15:22:07Z</time>
      </trkpt>
      <trkpt lat="46.60176" lon="-1.75734">
        <ele>49.395092253264</ele>
        <time>2019-10-18T15:22:14Z</time>
      </trkpt>
      <trkpt lat="46.60177" lon="-1.75747">
        <ele>49.394929284717</ele>
        <time>2019-10-18T15:22:22Z</time>
      </trkpt>
      <trkpt lat="46.60177" lon="-1.7576">
        <ele>48.394709987538</ele>
        <time>2019-10-18T15:22:30Z</time>
      </trkpt>
      <trkpt lat="46.60176" lon="-1.75772">
        <ele>47.394471815172</ele>
        <time>2019-10-18T15:22:38Z</time>
      </trkpt>
      <trkpt lat="46.60175" lon="-1.75785">
        <ele>47.394228760757</ele>
        <time>2019-10-18T15:22:47Z</time>
      </trkpt>
      <trkpt lat="46.60169" lon="-1.75793">
        <ele>46.393854198506</ele>
        <time>2019-10-18T15:22:56Z</time>
      </trkpt>
      <trkpt lat="46.60162" lon="-1.75791">
        <ele>45.393615134315</ele>
        <time>2019-10-18T15:23:53Z</time>
      </trkpt>
      <trkpt lat="46.60162" lon="-1.75791">
        <ele>45.393615134315</ele>
        <time>2019-10-18T15:23:53Z</time>
      </trkpt>
    </trkseg>
  </trk>
</gpx>